SAS5ZD KMCO-ENGM
Flight info
| Callsign | SAS5ZD |
|---|---|
| Flight time | N/A |
| Altitude | 34000 |
| Route | JEEMY4 PAINN SHRKS KJ06S TEEEM Q99 RAANE FEDOX SANNY MAULS PLDGE LOYDD OGESY Q227 STUBN TYROD SYR Q844 VIBRU REEDO IKLAX KEMVI Q852 DICEN ANCER N817A IRLOK 5550N 5640N 5630N 5620N PIKIL SOVED MIMKU ROBBO ALOTI UBEDA PIPEX M609 RIPAM |
| Aircraft | A339/H-SADE1E2E3GHIJ3J5M1P2RWXY/LB2D1 |
Departure
| Time | 2026-04-25 13:18 |
|---|---|
| Airport | Orlando International Airport (KMCO) |
Arrival
| Time | N/A |
|---|---|
| Airport | Oslo-Gardermoen International Airport (ENGM) |
| Time | Latitude | Longitude | Altitude | Speed | Heading |
|---|---|---|---|---|---|
| 2026-04-25 12:31 | 28.42628 | -81.31436 | 100 ft | 0 kts | 322° |
| 2026-04-25 12:59 | 28.42627 | -81.31435 | 100 ft | 2 kts | 323° |
| 2026-04-25 12:59 | 28.42606 | -81.31418 | 101 ft | 4 kts | 327° |
| 2026-04-25 12:59 | 28.42583 | -81.31402 | 99 ft | 4 kts | 327° |
| 2026-04-25 13:00 | 28.42561 | -81.31385 | 98 ft | 4 kts | 315° |
| 2026-04-25 13:00 | 28.42549 | -81.31373 | 100 ft | 4 kts | 293° |
| 2026-04-25 13:00 | 28.42542 | -81.31359 | 100 ft | 0 kts | 257° |
| 2026-04-25 13:03 | 28.42541 | -81.31361 | 100 ft | 1 kts | 253° |
| 2026-04-25 13:03 | 28.42533 | -81.31377 | 102 ft | 0 kts | 239° |
| 2026-04-25 13:04 | 28.42529 | -81.31378 | 102 ft | 2 kts | 226° |
| 2026-04-25 13:04 | 28.42495 | -81.31361 | 101 ft | 6 kts | 134° |
| 2026-04-25 13:04 | 28.42465 | -81.31328 | 102 ft | 6 kts | 135° |
| 2026-04-25 13:04 | 28.42432 | -81.31296 | 102 ft | 6 kts | 145° |
| 2026-04-25 13:05 | 28.42402 | -81.31284 | 102 ft | 0 kts | 165° |
| 2026-04-25 13:05 | 28.42381 | -81.31280 | 101 ft | 10 kts | 172° |
| 2026-04-25 13:05 | 28.42353 | -81.31335 | 101 ft | 7 kts | 273° |
| 2026-04-25 13:06 | 28.42352 | -81.31399 | 101 ft | 11 kts | 268° |
| 2026-04-25 13:06 | 28.42348 | -81.31528 | 103 ft | 22 kts | 269° |
| 2026-04-25 13:06 | 28.42345 | -81.31715 | 105 ft | 23 kts | 269° |
| 2026-04-25 13:06 | 28.42343 | -81.31878 | 106 ft | 7 kts | 269° |
| 2026-04-25 13:07 | 28.42343 | -81.31940 | 107 ft | 9 kts | 270° |
| 2026-04-25 13:07 | 28.42380 | -81.31982 | 107 ft | 9 kts | 337° |
| 2026-04-25 13:07 | 28.42490 | -81.31992 | 108 ft | 26 kts | 359° |
| 2026-04-25 13:07 | 28.42726 | -81.31995 | 107 ft | 37 kts | 360° |
| 2026-04-25 13:08 | 28.42981 | -81.31997 | 104 ft | 36 kts | 360° |
| 2026-04-25 13:08 | 28.43229 | -81.31996 | 104 ft | 35 kts | 0° |
| 2026-04-25 13:08 | 28.43460 | -81.31998 | 105 ft | 33 kts | 359° |
| 2026-04-25 13:08 | 28.43684 | -81.32001 | 105 ft | 31 kts | 359° |
| 2026-04-25 13:09 | 28.43896 | -81.32006 | 105 ft | 30 kts | 359° |
| 2026-04-25 13:09 | 28.44100 | -81.32008 | 105 ft | 29 kts | 360° |
| 2026-04-25 13:09 | 28.44268 | -81.32009 | 106 ft | 18 kts | 359° |
| 2026-04-25 13:09 | 28.44391 | -81.32010 | 107 ft | 18 kts | 359° |
| 2026-04-25 13:10 | 28.44513 | -81.32012 | 105 ft | 14 kts | 359° |
| 2026-04-25 13:10 | 28.44570 | -81.32013 | 104 ft | 7 kts | 359° |
| 2026-04-25 13:10 | 28.44616 | -81.32014 | 105 ft | 7 kts | 359° |
| 2026-04-25 13:10 | 28.44665 | -81.32016 | 106 ft | 7 kts | 359° |
| 2026-04-25 13:11 | 28.44709 | -81.32037 | 106 ft | 7 kts | 312° |
| 2026-04-25 13:11 | 28.44711 | -81.32078 | 104 ft | 5 kts | 274° |
| 2026-04-25 13:11 | 28.44712 | -81.32102 | 104 ft | 0 kts | 271° |
| 2026-04-25 13:15 | 28.44712 | -81.32111 | 103 ft | 4 kts | 271° |
| 2026-04-25 13:15 | 28.44713 | -81.32172 | 105 ft | 5 kts | 271° |
| 2026-04-25 13:16 | 28.44703 | -81.32209 | 106 ft | 6 kts | 240° |
| 2026-04-25 13:16 | 28.44675 | -81.32223 | 104 ft | 2 kts | 192° |
| 2026-04-25 13:16 | 28.44674 | -81.32223 | 105 ft | 0 kts | 190° |
| 2026-04-25 13:17 | 28.44419 | -81.32228 | 107 ft | 75 kts | 178° |
| 2026-04-25 13:18 | 28.43661 | -81.32215 | 106 ft | 141 kts | 180° |
| 2026-04-25 13:18 | 28.42516 | -81.32227 | 212 ft | 179 kts | 181° |
| 2026-04-25 13:18 | 28.41274 | -81.32254 | 885 ft | 180 kts | 182° |
| 2026-04-25 13:18 | 28.40040 | -81.32398 | 1619 ft | 178 kts | 192° |
| 2026-04-25 13:19 | 28.38843 | -81.32835 | 2216 ft | 188 kts | 204° |
| 2026-04-25 13:19 | 28.37598 | -81.33496 | 2531 ft | 208 kts | 206° |
| 2026-04-25 13:19 | 28.36239 | -81.34268 | 2815 ft | 228 kts | 207° |
| 2026-04-25 13:19 | 28.35768 | -81.34571 | 2884 ft | 235 kts | 211° |
| 2026-04-25 13:20 | 28.33458 | -81.36662 | 3289 ft | 265 kts | 218° |
| 2026-04-25 13:20 | 28.31984 | -81.37937 | 3853 ft | 267 kts | 217° |
| 2026-04-25 13:20 | 28.30494 | -81.39216 | 4442 ft | 270 kts | 217° |
| 2026-04-25 13:20 | 28.28988 | -81.40510 | 5015 ft | 272 kts | 218° |
| 2026-04-25 13:21 | 28.27778 | -81.42125 | 5540 ft | 275 kts | 243° |
| 2026-04-25 13:21 | 28.27248 | -81.44198 | 6126 ft | 275 kts | 263° |
| 2026-04-25 13:21 | 28.27017 | -81.46372 | 6628 ft | 279 kts | 265° |
| 2026-04-25 13:21 | 28.27257 | -81.48546 | 6829 ft | 278 kts | 290° |
| 2026-04-25 13:22 | 28.28279 | -81.50386 | 6935 ft | 277 kts | 316° |
| 2026-04-25 13:22 | 28.29793 | -81.51745 | 6986 ft | 278 kts | 323° |
| 2026-04-25 13:22 | 28.31332 | -81.53051 | 7002 ft | 277 kts | 323° |
| 2026-04-25 13:23 | 28.34441 | -81.55688 | 7028 ft | 276 kts | 323° |
| 2026-04-25 13:23 | 28.35974 | -81.56988 | 7370 ft | 275 kts | 323° |
| 2026-04-25 13:23 | 28.37580 | -81.58115 | 7900 ft | 275 kts | 339° |
| 2026-04-25 13:23 | 28.39462 | -81.58520 | 8501 ft | 277 kts | 353° |
| 2026-04-25 13:24 | 28.40789 | -81.58673 | 8907 ft | 278 kts | 353° |
| 2026-04-25 13:24 | 28.42747 | -81.58888 | 9489 ft | 281 kts | 353° |
| 2026-04-25 13:24 | 28.44674 | -81.59090 | 10065 ft | 283 kts | 353° |
| 2026-04-25 13:24 | 28.46652 | -81.59292 | 10610 ft | 284 kts | 353° |
| 2026-04-25 13:25 | 28.48629 | -81.59241 | 11152 ft | 287 kts | 10° |
| 2026-04-25 13:25 | 28.50542 | -81.58559 | 11729 ft | 289 kts | 19° |
| 2026-04-25 13:25 | 28.52414 | -81.57691 | 12303 ft | 291 kts | 20° |
| 2026-04-25 13:25 | 28.54276 | -81.56844 | 12879 ft | 291 kts | 18° |
| 2026-04-25 13:26 | 28.56175 | -81.56043 | 13473 ft | 292 kts | 17° |
| 2026-04-25 13:26 | 28.58100 | -81.55284 | 14042 ft | 291 kts | 16° |
| 2026-04-25 13:26 | 28.60072 | -81.54537 | 14584 ft | 291 kts | 15° |
| 2026-04-25 13:26 | 28.62005 | -81.53815 | 15130 ft | 291 kts | 15° |
| 2026-04-25 13:27 | 28.63924 | -81.53097 | 15624 ft | 293 kts | 15° |
| 2026-04-25 13:27 | 28.65895 | -81.52360 | 15880 ft | 304 kts | 15° |
| 2026-04-25 13:27 | 28.67965 | -81.51587 | 15983 ft | 321 kts | 15° |
| 2026-04-25 13:27 | 28.70147 | -81.50772 | 16059 ft | 337 kts | 15° |
| 2026-04-25 13:28 | 28.72422 | -81.49916 | 16186 ft | 351 kts | 16° |
| 2026-04-25 13:28 | 28.73984 | -81.49326 | 16262 ft | 360 kts | 16° |
| 2026-04-25 13:28 | 28.77227 | -81.48102 | 16628 ft | 370 kts | 16° |
| 2026-04-25 13:28 | 28.79647 | -81.47186 | 17072 ft | 372 kts | 16° |
| 2026-04-25 13:29 | 28.82119 | -81.46252 | 17486 ft | 375 kts | 16° |
| 2026-04-25 13:29 | 28.84610 | -81.45310 | 17924 ft | 378 kts | 16° |
| 2026-04-25 13:29 | 28.87121 | -81.44362 | 18339 ft | 381 kts | 16° |
| 2026-04-25 13:30 | 28.92184 | -81.42449 | 19176 ft | 384 kts | 15° |
| 2026-04-25 13:30 | 28.95226 | -81.41690 | 19642 ft | 383 kts | 4° |
| 2026-04-25 13:30 | 28.97516 | -81.41554 | 19999 ft | 383 kts | 356° |
| 2026-04-25 13:31 | 29.02859 | -81.42133 | 20822 ft | 385 kts | 352° |
| 2026-04-25 13:31 | 29.05547 | -81.42439 | 21254 ft | 388 kts | 352° |
| 2026-04-25 13:31 | 29.08242 | -81.42736 | 21658 ft | 390 kts | 352° |
| 2026-04-25 13:31 | 29.11034 | -81.43040 | 22082 ft | 392 kts | 353° |
| 2026-04-25 13:32 | 29.13762 | -81.43307 | 22483 ft | 394 kts | 353° |
| 2026-04-25 13:32 | 29.16803 | -81.43585 | 22929 ft | 397 kts | 353° |
| 2026-04-25 13:32 | 29.19558 | -81.43837 | 23343 ft | 399 kts | 353° |
| 2026-04-25 13:32 | 29.22348 | -81.44095 | 23723 ft | 402 kts | 353° |
| 2026-04-25 13:33 | 29.25181 | -81.44362 | 24079 ft | 404 kts | 353° |
| 2026-04-25 13:33 | 29.27074 | -81.44541 | 24317 ft | 405 kts | 353° |
| 2026-04-25 13:33 | 29.30171 | -81.44836 | 24699 ft | 407 kts | 354° |
| 2026-04-25 13:33 | 29.33165 | -81.45121 | 25075 ft | 409 kts | 354° |
| 2026-04-25 13:34 | 29.36005 | -81.45392 | 25416 ft | 411 kts | 354° |
| 2026-04-25 13:34 | 29.38868 | -81.45664 | 25761 ft | 413 kts | 354° |
| 2026-04-25 13:34 | 29.41706 | -81.45934 | 26093 ft | 415 kts | 354° |
| 2026-04-25 13:34 | 29.44595 | -81.46210 | 26444 ft | 417 kts | 354° |
| 2026-04-25 13:35 | 29.47656 | -81.46504 | 26799 ft | 419 kts | 354° |
| 2026-04-25 13:35 | 29.50595 | -81.46785 | 27139 ft | 421 kts | 354° |
| 2026-04-25 13:35 | 29.53488 | -81.47061 | 27467 ft | 423 kts | 354° |
| 2026-04-25 13:35 | 29.56434 | -81.47344 | 27789 ft | 425 kts | 355° |
| 2026-04-25 13:36 | 29.59411 | -81.47628 | 28114 ft | 427 kts | 355° |
| 2026-04-25 13:36 | 29.62414 | -81.47903 | 28434 ft | 429 kts | 355° |
| 2026-04-25 13:36 | 29.65429 | -81.48174 | 28742 ft | 431 kts | 355° |
| 2026-04-25 13:36 | 29.67630 | -81.48370 | 28977 ft | 432 kts | 355° |
| 2026-04-25 13:37 | 29.70717 | -81.48648 | 29298 ft | 434 kts | 355° |
| 2026-04-25 13:37 | 29.73737 | -81.48921 | 29596 ft | 436 kts | 355° |
| 2026-04-25 13:37 | 29.76942 | -81.49211 | 29925 ft | 438 kts | 355° |
| 2026-04-25 13:37 | 29.80111 | -81.49499 | 30220 ft | 440 kts | 355° |
| 2026-04-25 13:38 | 29.83171 | -81.49777 | 30473 ft | 442 kts | 355° |
| 2026-04-25 13:38 | 29.86697 | -81.50107 | 30768 ft | 444 kts | 354° |
| 2026-04-25 13:38 | 29.89770 | -81.50669 | 31003 ft | 446 kts | 348° |
| 2026-04-25 13:38 | 29.92777 | -81.51628 | 31256 ft | 449 kts | 342° |
| 2026-04-25 13:39 | 29.95755 | -81.52725 | 31510 ft | 451 kts | 343° |
| 2026-04-25 13:39 | 29.98803 | -81.53819 | 31768 ft | 453 kts | 343° |
| 2026-04-25 13:39 | 30.01813 | -81.54890 | 32011 ft | 455 kts | 343° |
| 2026-04-25 13:39 | 30.04646 | -81.55898 | 32237 ft | 456 kts | 343° |
| 2026-04-25 13:40 | 30.07705 | -81.56990 | 32474 ft | 458 kts | 343° |
| 2026-04-25 13:40 | 30.10178 | -81.57874 | 32634 ft | 459 kts | 343° |
| 2026-04-25 13:40 | 30.13252 | -81.58974 | 32823 ft | 461 kts | 343° |
| 2026-04-25 13:40 | 30.16323 | -81.60075 | 32989 ft | 462 kts | 343° |
| 2026-04-25 13:41 | 30.19613 | -81.61255 | 33158 ft | 463 kts | 343° |
| 2026-04-25 13:41 | 30.22700 | -81.62364 | 33303 ft | 465 kts | 343° |
| 2026-04-25 13:41 | 30.25756 | -81.63461 | 33427 ft | 465 kts | 343° |
| 2026-04-25 13:41 | 30.28853 | -81.64575 | 33596 ft | 466 kts | 343° |
| 2026-04-25 13:42 | 30.31949 | -81.65688 | 33782 ft | 465 kts | 343° |
| 2026-04-25 13:42 | 30.35048 | -81.66803 | 33953 ft | 465 kts | 343° |
| 2026-04-25 13:42 | 30.38019 | -81.67873 | 34094 ft | 464 kts | 343° |
| 2026-04-25 13:42 | 30.41093 | -81.68980 | 34278 ft | 463 kts | 343° |
| 2026-04-25 13:43 | 30.44257 | -81.70121 | 34442 ft | 462 kts | 343° |
| 2026-04-25 13:43 | 30.47327 | -81.71228 | 34634 ft | 461 kts | 343° |
| 2026-04-25 13:43 | 30.50390 | -81.72333 | 34788 ft | 460 kts | 342° |
| 2026-04-25 13:43 | 30.52412 | -81.73063 | 34902 ft | 460 kts | 342° |
| 2026-04-25 13:44 | 30.56535 | -81.74553 | 34960 ft | 458 kts | 342° |
| 2026-04-25 13:44 | 30.62610 | -81.76955 | 34957 ft | 458 kts | 336° |
| 2026-04-25 13:45 | 30.68566 | -81.80518 | 34960 ft | 458 kts | 332° |
| 2026-04-25 13:45 | 30.73887 | -81.83806 | 34965 ft | 458 kts | 332° |
| 2026-04-25 13:46 | 30.79525 | -81.87285 | 34983 ft | 458 kts | 332° |
| 2026-04-25 13:46 | 30.85196 | -81.90797 | 34978 ft | 463 kts | 332° |
| 2026-04-25 13:47 | 30.90905 | -81.94342 | 34956 ft | 466 kts | 332° |
| 2026-04-25 13:47 | 30.96694 | -81.97834 | 34965 ft | 468 kts | 338° |
| 2026-04-25 13:48 | 31.02446 | -81.99534 | 34956 ft | 469 kts | 354° |
| 2026-04-25 13:48 | 31.09210 | -81.99311 | 34956 ft | 471 kts | 3° |
| 2026-04-25 13:49 | 31.15717 | -81.98815 | 34955 ft | 472 kts | 2° |
| 2026-04-25 13:49 | 31.22561 | -81.98314 | 34957 ft | 473 kts | 2° |
| 2026-04-25 13:50 | 31.29133 | -81.97826 | 34960 ft | 474 kts | 2° |
| 2026-04-25 13:50 | 31.35857 | -81.97324 | 34937 ft | 475 kts | 2° |
| 2026-04-25 13:51 | 31.42511 | -81.96826 | 34940 ft | 475 kts | 2° |
| 2026-04-25 13:51 | 31.49121 | -81.96330 | 34947 ft | 475 kts | 2° |
| 2026-04-25 13:52 | 31.55726 | -81.95835 | 34947 ft | 476 kts | 2° |
| 2026-04-25 13:52 | 31.61364 | -81.95411 | 34948 ft | 476 kts | 2° |
| 2026-04-25 13:53 | 31.68123 | -81.94903 | 34940 ft | 476 kts | 2° |
| 2026-04-25 13:53 | 31.74987 | -81.94387 | 34931 ft | 477 kts | 2° |
| 2026-04-25 13:54 | 31.81667 | -81.93883 | 34921 ft | 477 kts | 2° |
| 2026-04-25 13:54 | 31.88256 | -81.93387 | 34911 ft | 477 kts | 2° |
| 2026-04-25 13:55 | 31.94345 | -81.92927 | 34912 ft | 478 kts | 2° |
| 2026-04-25 13:55 | 32.01222 | -81.92406 | 34916 ft | 478 kts | 2° |
| 2026-04-25 13:56 | 32.07870 | -81.91904 | 34916 ft | 478 kts | 2° |
| 2026-04-25 13:56 | 32.14633 | -81.90677 | 34922 ft | 480 kts | 14° |
| 2026-04-25 13:57 | 32.20839 | -81.87685 | 34927 ft | 482 kts | 25° |
| 2026-04-25 13:57 | 32.27004 | -81.84041 | 34919 ft | 483 kts | 25° |
| 2026-04-25 13:58 | 32.32852 | -81.80621 | 34917 ft | 483 kts | 25° |
| 2026-04-25 13:58 | 32.38884 | -81.77077 | 34902 ft | 483 kts | 25° |
| 2026-04-25 13:59 | 32.45072 | -81.73430 | 34902 ft | 483 kts | 25° |
| 2026-04-25 13:59 | 32.51099 | -81.69872 | 34913 ft | 483 kts | 25° |
| 2026-04-25 14:00 | 32.55132 | -81.67488 | 34905 ft | 483 kts | 25° |
| 2026-04-25 14:00 | 32.63180 | -81.62725 | 34932 ft | 484 kts | 25° |
| 2026-04-25 14:01 | 32.69006 | -81.59270 | 34933 ft | 484 kts | 25° |
| 2026-04-25 14:01 | 32.74860 | -81.55793 | 34931 ft | 484 kts | 25° |
| 2026-04-25 14:02 | 32.80375 | -81.52512 | 34915 ft | 484 kts | 25° |
| 2026-04-25 14:02 | 32.86450 | -81.48894 | 34891 ft | 484 kts | 25° |
| 2026-04-25 14:03 | 32.92436 | -81.45324 | 34894 ft | 484 kts | 25° |
| 2026-04-25 14:03 | 32.97451 | -81.42332 | 34896 ft | 484 kts | 25° |
| 2026-04-25 14:04 | 33.05109 | -81.37749 | 34899 ft | 485 kts | 25° |
| 2026-04-25 14:04 | 33.11278 | -81.34050 | 34901 ft | 485 kts | 25° |
| 2026-04-25 14:05 | 33.16578 | -81.30868 | 34921 ft | 486 kts | 25° |
| 2026-04-25 14:05 | 33.22617 | -81.27237 | 34910 ft | 486 kts | 25° |
| 2026-04-25 14:06 | 33.28871 | -81.23472 | 34915 ft | 486 kts | 25° |
| 2026-04-25 14:06 | 33.35049 | -81.19752 | 34912 ft | 487 kts | 25° |
| 2026-04-25 14:07 | 33.40084 | -81.16710 | 34885 ft | 487 kts | 25° |
| 2026-04-25 14:07 | 33.47552 | -81.12188 | 34882 ft | 487 kts | 25° |
| 2026-04-25 14:08 | 33.53592 | -81.08531 | 34895 ft | 488 kts | 25° |
| 2026-04-25 14:08 | 33.58879 | -81.05326 | 34913 ft | 487 kts | 25° |
| 2026-04-25 14:09 | 33.64964 | -81.01629 | 34917 ft | 487 kts | 25° |
| 2026-04-25 14:09 | 33.71768 | -80.97488 | 34913 ft | 487 kts | 25° |
| 2026-04-25 14:10 | 33.76964 | -80.94321 | 34909 ft | 488 kts | 25° |
| 2026-04-25 14:10 | 33.83142 | -80.90540 | 34874 ft | 488 kts | 27° |
| 2026-04-25 14:11 | 33.89296 | -80.85482 | 34871 ft | 490 kts | 37° |
| 2026-04-25 14:11 | 33.93757 | -80.81279 | 34887 ft | 490 kts | 37° |
| 2026-04-25 14:12 | 33.99267 | -80.76130 | 34880 ft | 490 kts | 37° |
| 2026-04-25 14:12 | 34.05246 | -80.70522 | 34863 ft | 490 kts | 37° |
| 2026-04-25 14:13 | 34.10334 | -80.65731 | 34885 ft | 490 kts | 37° |
| 2026-04-25 14:13 | 34.16024 | -80.60361 | 34925 ft | 490 kts | 37° |
| 2026-04-25 14:14 | 34.21582 | -80.55107 | 34932 ft | 490 kts | 37° |
| 2026-04-25 14:14 | 34.26340 | -80.50605 | 34933 ft | 491 kts | 37° |
| 2026-04-25 14:15 | 34.32177 | -80.45207 | 34909 ft | 491 kts | 36° |
| 2026-04-25 14:15 | 34.33824 | -80.43699 | 34908 ft | 491 kts | 36° |
| 2026-04-25 14:16 | 34.42526 | -80.35685 | 34884 ft | 491 kts | 36° |
| 2026-04-25 14:16 | 34.48157 | -80.30475 | 34889 ft | 492 kts | 36° |
| 2026-04-25 14:17 | 34.53861 | -80.25187 | 34891 ft | 492 kts | 36° |
| 2026-04-25 14:17 | 34.59313 | -80.20126 | 34894 ft | 492 kts | 36° |
| 2026-04-25 14:18 | 34.64752 | -80.15066 | 34890 ft | 492 kts | 36° |
| 2026-04-25 14:18 | 34.69484 | -80.10655 | 34893 ft | 492 kts | 36° |
| 2026-04-25 14:19 | 34.75119 | -80.05408 | 34901 ft | 492 kts | 36° |
| 2026-04-25 14:19 | 34.80897 | -80.00032 | 34894 ft | 492 kts | 36° |
| 2026-04-25 14:20 | 34.86484 | -79.95022 | 34889 ft | 492 kts | 34° |
| 2026-04-25 14:20 | 34.92218 | -79.90020 | 34899 ft | 493 kts | 34° |
| 2026-04-25 14:21 | 34.96091 | -79.86611 | 34897 ft | 493 kts | 35° |
| 2026-04-25 14:21 | 35.02730 | -79.80730 | 34894 ft | 493 kts | 35° |
| 2026-04-25 14:22 | 35.07350 | -79.76629 | 34890 ft | 494 kts | 35° |
| 2026-04-25 14:22 | 35.14380 | -79.70920 | 34861 ft | 491 kts | 23° |
| 2026-04-25 14:23 | 35.21064 | -79.68662 | 34856 ft | 487 kts | 4° |
| 2026-04-25 14:23 | 35.27588 | -79.68024 | 34868 ft | 487 kts | 3° |
| 2026-04-25 14:24 | 35.33409 | -79.67406 | 34867 ft | 488 kts | 3° |
| 2026-04-25 14:24 | 35.41050 | -79.66589 | 34864 ft | 488 kts | 3° |
| 2026-04-25 14:25 | 35.47101 | -79.65946 | 34874 ft | 488 kts | 2° |
| 2026-04-25 14:25 | 35.54801 | -79.65128 | 34880 ft | 489 kts | 2° |
| 2026-04-25 14:26 | 35.61698 | -79.64393 | 34888 ft | 489 kts | 2° |
| 2026-04-25 14:26 | 35.67498 | -79.63774 | 34893 ft | 489 kts | 2° |
| 2026-04-25 14:27 | 35.74382 | -79.63038 | 34897 ft | 490 kts | 2° |
| 2026-04-25 14:27 | 35.81446 | -79.62279 | 34882 ft | 490 kts | 2° |
| 2026-04-25 14:28 | 35.88475 | -79.61524 | 34881 ft | 490 kts | 2° |
| 2026-04-25 14:28 | 35.95220 | -79.60799 | 34876 ft | 490 kts | 2° |
| 2026-04-25 14:29 | 36.01412 | -79.60229 | 34879 ft | 488 kts | 359° |
| 2026-04-25 14:29 | 36.08264 | -79.59974 | 34875 ft | 488 kts | 358° |
| 2026-04-25 14:30 | 36.15884 | -79.59665 | 34874 ft | 488 kts | 359° |
| 2026-04-25 14:30 | 36.25418 | -79.59212 | 34863 ft | 489 kts | 359° |
| 2026-04-25 14:31 | 36.32612 | -79.58864 | 34864 ft | 489 kts | 359° |
| 2026-04-25 14:31 | 36.38741 | -79.58568 | 34868 ft | 489 kts | 359° |
| 2026-04-25 14:32 | 36.45381 | -79.58248 | 34869 ft | 489 kts | 358° |
| 2026-04-25 14:32 | 36.52876 | -79.57884 | 34861 ft | 489 kts | 358° |
| 2026-04-25 14:33 | 36.58899 | -79.57590 | 34859 ft | 489 kts | 358° |
| 2026-04-25 14:33 | 36.65932 | -79.57249 | 34862 ft | 489 kts | 358° |
| 2026-04-25 14:34 | 36.73385 | -79.56888 | 34860 ft | 489 kts | 358° |
| 2026-04-25 14:34 | 36.79233 | -79.56601 | 34855 ft | 489 kts | 358° |
| 2026-04-25 14:35 | 36.86388 | -79.56251 | 34846 ft | 489 kts | 358° |
| 2026-04-25 14:35 | 36.93562 | -79.55900 | 34848 ft | 490 kts | 358° |
| 2026-04-25 14:36 | 36.99699 | -79.55523 | 34842 ft | 492 kts | 2° |
| 2026-04-25 14:36 | 37.06558 | -79.53922 | 34841 ft | 496 kts | 7° |
| 2026-04-25 14:37 | 37.13507 | -79.52158 | 34845 ft | 496 kts | 7° |
| 2026-04-25 14:37 | 37.20125 | -79.50483 | 34856 ft | 496 kts | 7° |
| 2026-04-25 14:38 | 37.27258 | -79.48667 | 34859 ft | 497 kts | 7° |
| 2026-04-25 14:38 | 37.34416 | -79.46838 | 34870 ft | 497 kts | 7° |
| 2026-04-25 14:39 | 37.40890 | -79.45181 | 34866 ft | 497 kts | 7° |
| 2026-04-25 14:39 | 37.46994 | -79.43617 | 34863 ft | 497 kts | 7° |
| 2026-04-25 14:40 | 37.53597 | -79.41920 | 34860 ft | 498 kts | 7° |
| 2026-04-25 14:40 | 37.61366 | -79.39921 | 34888 ft | 498 kts | 7° |
| 2026-04-25 14:41 | 37.68225 | -79.38152 | 34908 ft | 498 kts | 6° |
| 2026-04-25 14:41 | 37.74769 | -79.36462 | 34933 ft | 498 kts | 6° |
| 2026-04-25 14:42 | 37.79237 | -79.35307 | 34940 ft | 498 kts | 6° |
| 2026-04-25 14:42 | 37.88381 | -79.32295 | 34928 ft | 505 kts | 17° |
| 2026-04-25 14:43 | 37.94245 | -79.28455 | 34915 ft | 511 kts | 26° |
| 2026-04-25 14:43 | 38.00550 | -79.23789 | 34891 ft | 511 kts | 25° |
| 2026-04-25 14:44 | 38.06234 | -79.19606 | 34871 ft | 512 kts | 25° |
| 2026-04-25 14:44 | 38.13184 | -79.14465 | 34872 ft | 512 kts | 25° |
| 2026-04-25 14:45 | 38.18590 | -79.10454 | 34881 ft | 511 kts | 25° |
| 2026-04-25 14:45 | 38.24957 | -79.05721 | 34887 ft | 512 kts | 26° |
| 2026-04-25 14:46 | 38.31521 | -79.00830 | 34871 ft | 512 kts | 26° |
| 2026-04-25 14:46 | 38.37099 | -78.96666 | 34878 ft | 512 kts | 26° |
| 2026-04-25 14:47 | 38.42347 | -78.92744 | 34875 ft | 512 kts | 26° |
| 2026-04-25 14:47 | 38.49079 | -78.87702 | 34869 ft | 512 kts | 26° |
| 2026-04-25 14:48 | 38.55817 | -78.82641 | 34870 ft | 512 kts | 26° |
| 2026-04-25 14:48 | 38.62032 | -78.77967 | 34872 ft | 512 kts | 26° |
| 2026-04-25 14:49 | 38.66527 | -78.74579 | 34870 ft | 512 kts | 26° |
| 2026-04-25 14:49 | 38.74218 | -78.68773 | 34868 ft | 512 kts | 26° |
| 2026-04-25 14:50 | 38.79655 | -78.64660 | 34870 ft | 512 kts | 26° |
| 2026-04-25 14:50 | 38.85906 | -78.59921 | 34880 ft | 512 kts | 26° |
| 2026-04-25 14:51 | 38.91281 | -78.55838 | 34883 ft | 512 kts | 26° |
| 2026-04-25 14:51 | 38.98849 | -78.50076 | 34881 ft | 512 kts | 26° |
| 2026-04-25 14:52 | 39.04751 | -78.45573 | 34890 ft | 512 kts | 26° |
| 2026-04-25 14:52 | 39.09938 | -78.41607 | 34898 ft | 511 kts | 26° |
| 2026-04-25 14:53 | 39.16700 | -78.36382 | 34884 ft | 513 kts | 28° |
| 2026-04-25 14:53 | 39.22683 | -78.30874 | 34888 ft | 514 kts | 31° |
| 2026-04-25 14:54 | 39.28674 | -78.25371 | 34911 ft | 514 kts | 31° |
| 2026-04-25 14:54 | 39.33787 | -78.20664 | 34907 ft | 514 kts | 31° |
| 2026-04-25 14:55 | 39.39870 | -78.15046 | 34909 ft | 514 kts | 31° |
| 2026-04-25 14:55 | 39.44833 | -78.10451 | 34911 ft | 514 kts | 31° |
| 2026-04-25 14:56 | 39.51983 | -78.03816 | 34912 ft | 514 kts | 31° |
| 2026-04-25 14:56 | 39.57068 | -77.99088 | 34913 ft | 514 kts | 31° |
| 2026-04-25 14:57 | 39.63347 | -77.93236 | 34921 ft | 514 kts | 31° |
| 2026-04-25 14:57 | 39.68623 | -77.88310 | 34920 ft | 514 kts | 31° |
| 2026-04-25 14:58 | 39.74709 | -77.82618 | 34924 ft | 513 kts | 30° |
| 2026-04-25 14:58 | 39.81107 | -77.78098 | 34922 ft | 501 kts | 15° |
| 2026-04-25 14:59 | 39.87160 | -77.75684 | 34912 ft | 495 kts | 9° |
| 2026-04-25 14:59 | 39.93792 | -77.73267 | 34927 ft | 495 kts | 9° |
| 2026-04-25 15:00 | 40.00402 | -77.70834 | 34930 ft | 495 kts | 9° |
| 2026-04-25 15:00 | 40.07129 | -77.68363 | 34934 ft | 495 kts | 9° |
| 2026-04-25 15:01 | 40.13760 | -77.65926 | 34940 ft | 494 kts | 9° |
| 2026-04-25 15:01 | 40.20158 | -77.63570 | 34961 ft | 494 kts | 9° |
| 2026-04-25 15:02 | 40.26867 | -77.61095 | 34966 ft | 493 kts | 9° |
| 2026-04-25 15:02 | 40.33609 | -77.58602 | 34963 ft | 493 kts | 9° |
| 2026-04-25 15:03 | 40.40432 | -77.56074 | 34964 ft | 493 kts | 9° |
| 2026-04-25 15:03 | 40.47396 | -77.53488 | 34964 ft | 493 kts | 9° |
| 2026-04-25 15:04 | 40.53907 | -77.51065 | 34944 ft | 493 kts | 9° |
| 2026-04-25 15:04 | 40.60507 | -77.48604 | 34945 ft | 493 kts | 9° |
| 2026-04-25 15:05 | 40.66129 | -77.46504 | 34945 ft | 492 kts | 9° |
| 2026-04-25 15:06 | 40.76567 | -77.42662 | 34964 ft | 489 kts | 7° |
| 2026-04-25 15:06 | 40.83263 | -77.40734 | 34957 ft | 488 kts | 6° |
| 2026-04-25 15:07 | 40.89987 | -77.38809 | 34958 ft | 488 kts | 6° |
| 2026-04-25 15:07 | 40.96673 | -77.36826 | 34955 ft | 489 kts | 6° |
| 2026-04-25 15:08 | 41.03499 | -77.34782 | 34933 ft | 489 kts | 6° |
| 2026-04-25 15:08 | 41.09159 | -77.33083 | 34943 ft | 488 kts | 6° |
| 2026-04-25 15:09 | 41.16050 | -77.31012 | 34974 ft | 488 kts | 6° |
| 2026-04-25 15:09 | 41.25993 | -77.28017 | 34982 ft | 488 kts | 6° |
| 2026-04-25 15:10 | 41.32772 | -77.25969 | 34978 ft | 488 kts | 6° |
| 2026-04-25 15:11 | 41.42835 | -77.22921 | 34956 ft | 488 kts | 6° |
| 2026-04-25 15:11 | 41.49475 | -77.20904 | 34928 ft | 488 kts | 6° |
| 2026-04-25 15:12 | 41.59153 | -77.17957 | 34935 ft | 488 kts | 6° |
| 2026-04-25 15:12 | 41.64426 | -77.16347 | 34943 ft | 488 kts | 6° |
| 2026-04-25 15:13 | 41.75581 | -77.12931 | 34947 ft | 488 kts | 6° |
| 2026-04-25 15:14 | 41.82357 | -77.10847 | 34933 ft | 489 kts | 6° |
| 2026-04-25 15:14 | 41.88909 | -77.08825 | 34939 ft | 489 kts | 6° |
| 2026-04-25 15:15 | 41.95678 | -77.06730 | 34944 ft | 489 kts | 6° |
| 2026-04-25 15:15 | 42.02447 | -77.04632 | 34947 ft | 490 kts | 6° |
| 2026-04-25 15:16 | 42.09147 | -77.02302 | 34948 ft | 496 kts | 13° |
| 2026-04-25 15:16 | 42.17721 | -76.96861 | 34946 ft | 503 kts | 20° |
| 2026-04-25 15:17 | 42.27147 | -76.90539 | 34948 ft | 504 kts | 20° |
| 2026-04-25 15:18 | 42.33593 | -76.86194 | 34952 ft | 504 kts | 20° |
| 2026-04-25 15:18 | 42.43228 | -76.79672 | 34959 ft | 504 kts | 20° |
| 2026-04-25 15:19 | 42.48351 | -76.76003 | 34962 ft | 508 kts | 26° |
| 2026-04-25 15:19 | 42.55405 | -76.70246 | 34967 ft | 508 kts | 25° |
| 2026-04-25 15:20 | 42.61478 | -76.65322 | 34963 ft | 508 kts | 25° |
| 2026-04-25 15:20 | 42.67556 | -76.60375 | 34970 ft | 508 kts | 25° |
| 2026-04-25 15:21 | 42.73586 | -76.55453 | 34969 ft | 508 kts | 25° |
| 2026-04-25 15:21 | 42.79656 | -76.50485 | 34960 ft | 508 kts | 25° |
| 2026-04-25 15:22 | 42.85709 | -76.45521 | 34961 ft | 508 kts | 25° |
| 2026-04-25 15:22 | 42.91770 | -76.40538 | 34973 ft | 507 kts | 25° |
| 2026-04-25 15:23 | 42.97816 | -76.35556 | 34993 ft | 508 kts | 25° |
| 2026-04-25 15:23 | 43.03909 | -76.30525 | 35027 ft | 507 kts | 25° |
| 2026-04-25 15:24 | 43.09918 | -76.25549 | 35026 ft | 507 kts | 25° |
| 2026-04-25 15:24 | 43.15068 | -76.21823 | 35030 ft | 496 kts | 14° |
| 2026-04-25 15:25 | 43.22771 | -76.19419 | 35026 ft | 479 kts | 359° |
| 2026-04-25 15:25 | 43.29416 | -76.18448 | 35014 ft | 480 kts | 359° |
| 2026-04-25 15:26 | 43.36027 | -76.17426 | 35008 ft | 481 kts | 359° |
| 2026-04-25 15:26 | 43.42688 | -76.16402 | 34996 ft | 481 kts | 359° |
| 2026-04-25 15:27 | 43.49349 | -76.15381 | 34992 ft | 482 kts | 359° |
| 2026-04-25 15:28 | 43.59373 | -76.13841 | 34991 ft | 482 kts | 359° |
| 2026-04-25 15:28 | 43.66044 | -76.12813 | 34985 ft | 482 kts | 359° |
| 2026-04-25 15:29 | 43.71965 | -76.11899 | 34990 ft | 482 kts | 359° |
| 2026-04-25 15:29 | 43.78663 | -76.10863 | 34998 ft | 482 kts | 360° |
| 2026-04-25 15:30 | 43.85302 | -76.09833 | 35005 ft | 482 kts | 360° |
| 2026-04-25 15:30 | 43.92015 | -76.08790 | 35010 ft | 482 kts | 360° |
| 2026-04-25 15:31 | 43.98725 | -76.07745 | 35027 ft | 481 kts | 360° |
| 2026-04-25 15:31 | 44.05411 | -76.06702 | 35028 ft | 481 kts | 360° |
| 2026-04-25 15:32 | 44.12198 | -76.05640 | 35027 ft | 481 kts | 360° |
| 2026-04-25 15:32 | 44.18861 | -76.04595 | 35027 ft | 481 kts | 360° |
| 2026-04-25 15:33 | 44.28825 | -76.03028 | 35011 ft | 482 kts | 0° |
| 2026-04-25 15:33 | 44.35491 | -76.01984 | 35017 ft | 481 kts | 359° |
| 2026-04-25 15:34 | 44.42207 | -76.00279 | 35021 ft | 494 kts | 14° |
| 2026-04-25 15:34 | 44.45345 | -75.98194 | 35021 ft | 504 kts | 25° |
| 2026-04-25 15:34 | 44.47272 | -75.96363 | 35022 ft | 510 kts | 32° |
| 2026-04-25 15:35 | 44.52812 | -75.87532 | 35029 ft | 522 kts | 50° |
| 2026-04-25 15:35 | 44.55035 | -75.83493 | 35029 ft | 519 kts | 45° |
| 2026-04-25 15:36 | 44.62651 | -75.72940 | 35044 ft | 512 kts | 36° |
| 2026-04-25 15:36 | 44.68005 | -75.66341 | 35048 ft | 511 kts | 36° |
| 2026-04-25 15:37 | 44.73367 | -75.59721 | 35057 ft | 511 kts | 36° |
| 2026-04-25 15:37 | 44.78746 | -75.53036 | 35067 ft | 510 kts | 36° |
| 2026-04-25 15:38 | 44.84044 | -75.46431 | 35074 ft | 510 kts | 36° |
| 2026-04-25 15:38 | 44.89361 | -75.39787 | 35076 ft | 510 kts | 36° |
| 2026-04-25 15:39 | 44.94851 | -75.32909 | 35080 ft | 510 kts | 36° |
| 2026-04-25 15:39 | 44.99295 | -75.27329 | 35083 ft | 509 kts | 36° |
| 2026-04-25 15:40 | 45.03732 | -75.21745 | 35089 ft | 509 kts | 36° |
| 2026-04-25 15:40 | 45.10135 | -75.13663 | 35107 ft | 509 kts | 36° |
| 2026-04-25 15:41 | 45.15542 | -75.06820 | 35110 ft | 508 kts | 36° |
| 2026-04-25 15:41 | 45.20832 | -75.00107 | 35111 ft | 508 kts | 36° |
| 2026-04-25 15:42 | 45.26051 | -74.93468 | 35112 ft | 507 kts | 36° |
| 2026-04-25 15:42 | 45.31423 | -74.86613 | 35111 ft | 506 kts | 36° |
| 2026-04-25 15:43 | 45.36621 | -74.79964 | 35118 ft | 504 kts | 36° |
| 2026-04-25 15:43 | 45.41828 | -74.73286 | 35122 ft | 503 kts | 36° |
| 2026-04-25 15:44 | 45.47024 | -74.66605 | 35129 ft | 502 kts | 36° |
| 2026-04-25 15:44 | 45.51583 | -74.60730 | 35129 ft | 501 kts | 36° |
| 2026-04-25 15:45 | 45.56739 | -74.54069 | 35136 ft | 500 kts | 36° |
| 2026-04-25 15:45 | 45.61028 | -74.48519 | 35141 ft | 499 kts | 36° |
| 2026-04-25 15:46 | 45.67001 | -74.40765 | 35146 ft | 497 kts | 36° |
| 2026-04-25 15:46 | 45.72117 | -74.34105 | 35149 ft | 496 kts | 36° |
| 2026-04-25 15:47 | 45.77198 | -74.27471 | 35147 ft | 495 kts | 36° |
| 2026-04-25 15:47 | 45.82292 | -74.20805 | 35149 ft | 494 kts | 36° |
| 2026-04-25 15:48 | 45.87426 | -74.14069 | 35154 ft | 493 kts | 36° |
| 2026-04-25 15:48 | 45.92520 | -74.07368 | 35155 ft | 491 kts | 36° |
| 2026-04-25 15:49 | 45.97560 | -74.00719 | 35171 ft | 490 kts | 36° |
| 2026-04-25 15:49 | 46.02650 | -73.93990 | 35164 ft | 489 kts | 36° |
| 2026-04-25 15:50 | 46.07201 | -73.86678 | 35166 ft | 498 kts | 47° |
| 2026-04-25 15:50 | 46.11392 | -73.78718 | 35173 ft | 497 kts | 46° |
| 2026-04-25 15:51 | 46.14900 | -73.72133 | 35169 ft | 496 kts | 46° |
| 2026-04-25 15:51 | 46.19766 | -73.62945 | 35246 ft | 494 kts | 46° |
| 2026-04-25 15:52 | 46.21925 | -73.58848 | 35471 ft | 488 kts | 46° |
| 2026-04-25 15:52 | 46.23969 | -73.54964 | 35727 ft | 484 kts | 45° |
| 2026-04-25 15:52 | 46.25982 | -73.51134 | 35926 ft | 482 kts | 45° |
| 2026-04-25 15:52 | 46.28007 | -73.47279 | 36139 ft | 480 kts | 46° |
| 2026-04-25 15:53 | 46.30022 | -73.43437 | 36344 ft | 478 kts | 46° |
| 2026-04-25 15:53 | 46.32032 | -73.39601 | 36542 ft | 477 kts | 46° |
| 2026-04-25 15:53 | 46.34030 | -73.35781 | 36755 ft | 475 kts | 46° |
| 2026-04-25 15:53 | 46.35938 | -73.31850 | 36964 ft | 479 kts | 51° |
| 2026-04-25 15:54 | 46.37693 | -73.27757 | 37117 ft | 480 kts | 51° |
| 2026-04-25 15:54 | 46.39457 | -73.23692 | 37178 ft | 482 kts | 51° |
| 2026-04-25 15:54 | 46.43081 | -73.15382 | 37181 ft | 487 kts | 51° |
| 2026-04-25 15:55 | 46.46678 | -73.07085 | 37177 ft | 490 kts | 51° |
| 2026-04-25 15:55 | 46.50355 | -72.98570 | 37179 ft | 492 kts | 51° |
| 2026-04-25 15:56 | 46.53986 | -72.90132 | 37157 ft | 493 kts | 51° |
| 2026-04-25 15:56 | 46.57589 | -72.81735 | 37165 ft | 493 kts | 52° |
| 2026-04-25 15:57 | 46.61212 | -72.73266 | 37180 ft | 493 kts | 52° |
| 2026-04-25 15:57 | 46.64830 | -72.64784 | 37155 ft | 493 kts | 52° |
| 2026-04-25 15:58 | 46.68471 | -72.56226 | 37161 ft | 492 kts | 52° |
| 2026-04-25 15:58 | 46.72066 | -72.47749 | 37180 ft | 491 kts | 52° |
| 2026-04-25 15:59 | 46.75656 | -72.39257 | 37176 ft | 491 kts | 53° |
| 2026-04-25 15:59 | 46.79256 | -72.30822 | 37172 ft | 487 kts | 50° |
| 2026-04-25 16:00 | 46.82070 | -72.25685 | 37176 ft | 480 kts | 41° |
| 2026-04-25 16:00 | 46.88172 | -72.16286 | 37176 ft | 478 kts | 41° |
| 2026-04-25 16:01 | 46.92729 | -72.09190 | 37169 ft | 478 kts | 41° |
| 2026-04-25 16:01 | 46.97264 | -72.02115 | 37164 ft | 477 kts | 41° |
| 2026-04-25 16:02 | 47.01796 | -71.95027 | 37171 ft | 475 kts | 41° |
| 2026-04-25 16:02 | 47.06291 | -71.87984 | 37164 ft | 475 kts | 41° |
| 2026-04-25 16:03 | 47.10815 | -71.80875 | 37163 ft | 475 kts | 42° |
| 2026-04-25 16:03 | 47.15334 | -71.73754 | 37151 ft | 475 kts | 42° |
| 2026-04-25 16:04 | 47.19819 | -71.66666 | 37123 ft | 476 kts | 43° |
| 2026-04-25 16:04 | 47.24331 | -71.59518 | 37109 ft | 476 kts | 43° |
| 2026-04-25 16:05 | 47.28809 | -71.52404 | 37084 ft | 476 kts | 43° |
| 2026-04-25 16:06 | 47.35551 | -71.41655 | 37091 ft | 475 kts | 43° |
| 2026-04-25 16:06 | 47.39276 | -71.35697 | 37093 ft | 475 kts | 43° |
| 2026-04-25 16:07 | 47.44499 | -71.27321 | 37090 ft | 475 kts | 44° |
| 2026-04-25 16:07 | 47.48219 | -71.21342 | 37084 ft | 475 kts | 44° |
| 2026-04-25 16:08 | 47.52704 | -71.14113 | 37081 ft | 475 kts | 44° |
| 2026-04-25 16:08 | 47.57174 | -71.06887 | 37089 ft | 475 kts | 44° |
| 2026-04-25 16:09 | 47.61620 | -70.99681 | 37097 ft | 475 kts | 44° |
| 2026-04-25 16:09 | 47.66086 | -70.92424 | 37107 ft | 475 kts | 44° |
| 2026-04-25 16:10 | 47.70578 | -70.85105 | 37122 ft | 475 kts | 44° |
| 2026-04-25 16:10 | 47.75044 | -70.77807 | 37130 ft | 474 kts | 44° |
| 2026-04-25 16:11 | 47.79450 | -70.70587 | 37137 ft | 474 kts | 44° |
| 2026-04-25 16:11 | 47.83877 | -70.63313 | 37144 ft | 473 kts | 44° |
| 2026-04-25 16:12 | 47.88281 | -70.56058 | 37145 ft | 473 kts | 45° |
| 2026-04-25 16:12 | 47.92688 | -70.48778 | 37165 ft | 472 kts | 45° |
| 2026-04-25 16:13 | 47.97088 | -70.41489 | 37167 ft | 472 kts | 45° |
| 2026-04-25 16:13 | 48.01491 | -70.34176 | 37168 ft | 472 kts | 45° |
| 2026-04-25 16:14 | 48.05854 | -70.26907 | 37170 ft | 471 kts | 45° |
| 2026-04-25 16:14 | 48.10234 | -70.19588 | 37140 ft | 471 kts | 45° |
| 2026-04-25 16:15 | 48.14584 | -70.12301 | 37138 ft | 471 kts | 45° |
| 2026-04-25 16:15 | 48.18944 | -70.04977 | 37133 ft | 470 kts | 45° |
| 2026-04-25 16:16 | 48.23311 | -69.97622 | 37141 ft | 471 kts | 45° |
| 2026-04-25 16:16 | 48.27660 | -69.90277 | 37138 ft | 471 kts | 45° |
| 2026-04-25 16:17 | 48.32009 | -69.82915 | 37132 ft | 471 kts | 45° |
| 2026-04-25 16:17 | 48.36352 | -69.75537 | 37131 ft | 470 kts | 45° |
| 2026-04-25 16:18 | 48.40687 | -69.68151 | 37137 ft | 470 kts | 46° |
| 2026-04-25 16:18 | 48.45013 | -69.60764 | 37143 ft | 470 kts | 46° |
| 2026-04-25 16:19 | 48.49323 | -69.53384 | 37145 ft | 470 kts | 46° |
| 2026-04-25 16:19 | 48.53639 | -69.45977 | 37144 ft | 470 kts | 46° |
| 2026-04-25 16:20 | 48.60172 | -69.34895 | 37140 ft | 470 kts | 45° |
| 2026-04-25 16:21 | 48.66791 | -69.23955 | 37143 ft | 470 kts | 45° |
| 2026-04-25 16:21 | 48.71170 | -69.16689 | 37139 ft | 469 kts | 45° |
| 2026-04-25 16:22 | 48.75567 | -69.09367 | 37143 ft | 469 kts | 45° |
| 2026-04-25 16:22 | 48.79960 | -69.02032 | 37139 ft | 469 kts | 45° |
| 2026-04-25 16:23 | 48.84340 | -68.94693 | 37139 ft | 469 kts | 45° |
| 2026-04-25 16:23 | 48.88720 | -68.87336 | 37135 ft | 469 kts | 45° |
| 2026-04-25 16:24 | 48.93075 | -68.79997 | 37136 ft | 468 kts | 46° |
| 2026-04-25 16:24 | 48.97441 | -68.72613 | 37134 ft | 468 kts | 46° |
| 2026-04-25 16:25 | 49.01800 | -68.65215 | 37133 ft | 468 kts | 46° |
| 2026-04-25 16:25 | 49.06116 | -68.57868 | 37123 ft | 467 kts | 46° |
| 2026-04-25 16:26 | 49.10453 | -68.50468 | 37122 ft | 467 kts | 46° |
| 2026-04-25 16:26 | 49.14784 | -68.43055 | 37117 ft | 467 kts | 46° |
| 2026-04-25 16:27 | 49.19107 | -68.35634 | 37113 ft | 466 kts | 46° |
| 2026-04-25 16:27 | 49.23399 | -68.28246 | 37115 ft | 466 kts | 46° |
| 2026-04-25 16:28 | 49.27707 | -68.20807 | 37100 ft | 465 kts | 46° |
| 2026-04-25 16:28 | 49.32005 | -68.13365 | 37139 ft | 467 kts | 46° |
| 2026-04-25 16:29 | 49.36322 | -68.05871 | 37144 ft | 469 kts | 46° |
| 2026-04-25 16:29 | 49.40617 | -67.98394 | 37144 ft | 469 kts | 46° |
| 2026-04-25 16:30 | 49.44213 | -67.92115 | 37141 ft | 470 kts | 46° |
| 2026-04-25 16:30 | 49.49263 | -67.83273 | 37147 ft | 470 kts | 46° |
| 2026-04-25 16:31 | 49.53552 | -67.75742 | 37108 ft | 471 kts | 47° |
| 2026-04-25 16:31 | 49.57865 | -67.68144 | 37112 ft | 471 kts | 47° |
| 2026-04-25 16:32 | 49.62168 | -67.60541 | 37115 ft | 471 kts | 47° |
| 2026-04-25 16:32 | 49.66472 | -67.52916 | 37115 ft | 471 kts | 47° |
| 2026-04-25 16:33 | 49.70775 | -67.45269 | 37111 ft | 471 kts | 47° |
| 2026-04-25 16:33 | 49.75069 | -67.37617 | 37110 ft | 471 kts | 47° |
| 2026-04-25 16:34 | 49.79351 | -67.29961 | 37113 ft | 471 kts | 47° |
| 2026-04-25 16:34 | 49.83641 | -67.22271 | 37112 ft | 471 kts | 47° |
| 2026-04-25 16:35 | 49.87890 | -67.14633 | 37107 ft | 471 kts | 47° |
| 2026-04-25 16:35 | 49.92172 | -67.06908 | 37105 ft | 471 kts | 47° |
| 2026-04-25 16:36 | 49.96414 | -66.99237 | 37107 ft | 470 kts | 47° |
| 2026-04-25 16:36 | 50.00671 | -66.91516 | 37099 ft | 470 kts | 47° |
| 2026-04-25 16:37 | 50.04924 | -66.83776 | 37098 ft | 470 kts | 48° |
| 2026-04-25 16:37 | 50.09173 | -66.76020 | 37096 ft | 470 kts | 48° |
| 2026-04-25 16:38 | 50.13407 | -66.68270 | 37091 ft | 470 kts | 48° |
| 2026-04-25 16:38 | 50.17643 | -66.60495 | 37086 ft | 470 kts | 48° |
| 2026-04-25 16:39 | 50.21902 | -66.52653 | 37087 ft | 469 kts | 48° |
| 2026-04-25 16:39 | 50.25417 | -66.46161 | 37084 ft | 469 kts | 48° |
| 2026-04-25 16:40 | 50.29634 | -66.38352 | 37086 ft | 469 kts | 48° |
| 2026-04-25 16:40 | 50.33898 | -66.30434 | 37087 ft | 468 kts | 48° |
| 2026-04-25 16:41 | 50.38073 | -66.22656 | 37086 ft | 468 kts | 48° |
| 2026-04-25 16:41 | 50.44356 | -66.10906 | 37101 ft | 467 kts | 49° |
| 2026-04-25 16:42 | 50.48503 | -66.03122 | 37105 ft | 467 kts | 49° |
| 2026-04-25 16:42 | 50.52667 | -65.95282 | 37105 ft | 467 kts | 49° |
| 2026-04-25 16:43 | 50.56838 | -65.87407 | 37106 ft | 466 kts | 49° |
| 2026-04-25 16:43 | 50.60983 | -65.79556 | 37100 ft | 466 kts | 49° |
| 2026-04-25 16:44 | 50.65096 | -65.71741 | 37106 ft | 465 kts | 49° |
| 2026-04-25 16:44 | 50.69213 | -65.63898 | 37106 ft | 464 kts | 49° |
| 2026-04-25 16:45 | 50.73323 | -65.56040 | 37113 ft | 463 kts | 49° |
| 2026-04-25 16:45 | 50.77426 | -65.48175 | 37112 ft | 463 kts | 49° |
| 2026-04-25 16:46 | 50.81519 | -65.40301 | 37119 ft | 462 kts | 49° |
| 2026-04-25 16:46 | 50.84911 | -65.33760 | 37120 ft | 462 kts | 49° |
| 2026-04-25 16:47 | 50.89646 | -65.24603 | 37124 ft | 461 kts | 49° |
| 2026-04-25 16:47 | 50.93712 | -65.16712 | 37124 ft | 461 kts | 49° |
| 2026-04-25 16:48 | 50.97746 | -65.08860 | 37127 ft | 461 kts | 49° |
| 2026-04-25 16:48 | 51.01786 | -65.00971 | 37104 ft | 461 kts | 50° |
| 2026-04-25 16:49 | 51.05838 | -64.93046 | 37118 ft | 460 kts | 51° |
| 2026-04-25 16:49 | 51.09848 | -64.85161 | 37118 ft | 459 kts | 51° |
| 2026-04-25 16:50 | 51.13856 | -64.77260 | 37141 ft | 459 kts | 51° |
| 2026-04-25 16:50 | 51.17872 | -64.69322 | 37145 ft | 458 kts | 51° |
| 2026-04-25 16:51 | 51.21869 | -64.61395 | 37148 ft | 458 kts | 51° |
| 2026-04-25 16:51 | 51.25187 | -64.54799 | 37111 ft | 458 kts | 51° |
| 2026-04-25 16:52 | 51.29827 | -64.45545 | 37113 ft | 458 kts | 51° |
| 2026-04-25 16:52 | 51.33809 | -64.37575 | 37116 ft | 458 kts | 51° |
| 2026-04-25 16:53 | 51.39759 | -64.25622 | 37125 ft | 457 kts | 51° |
| 2026-04-25 16:54 | 51.43716 | -64.17642 | 37128 ft | 457 kts | 52° |
| 2026-04-25 16:54 | 51.47653 | -64.09679 | 37125 ft | 457 kts | 52° |
| 2026-04-25 16:55 | 51.51612 | -64.01646 | 37134 ft | 457 kts | 52° |
| 2026-04-25 16:55 | 51.55533 | -63.93664 | 37128 ft | 457 kts | 52° |
| 2026-04-25 16:56 | 51.59483 | -63.85598 | 37133 ft | 458 kts | 52° |
| 2026-04-25 16:56 | 51.63400 | -63.77575 | 37132 ft | 458 kts | 52° |
| 2026-04-25 16:57 | 51.67336 | -63.69487 | 37132 ft | 458 kts | 52° |
| 2026-04-25 16:57 | 51.71248 | -63.61425 | 37127 ft | 458 kts | 52° |
| 2026-04-25 16:58 | 51.75173 | -63.53307 | 37125 ft | 458 kts | 52° |
| 2026-04-25 16:58 | 51.79078 | -63.45208 | 37125 ft | 458 kts | 53° |
| 2026-04-25 16:59 | 51.82995 | -63.37056 | 37128 ft | 458 kts | 53° |
| 2026-04-25 16:59 | 51.86882 | -63.28943 | 37123 ft | 458 kts | 53° |
| 2026-04-25 17:00 | 51.90788 | -63.20762 | 37121 ft | 458 kts | 53° |
| 2026-04-25 17:00 | 51.94690 | -63.12565 | 37119 ft | 458 kts | 53° |
| 2026-04-25 17:01 | 51.98556 | -63.04417 | 37123 ft | 458 kts | 53° |
| 2026-04-25 17:01 | 52.02453 | -62.96179 | 37118 ft | 458 kts | 53° |
| 2026-04-25 17:02 | 52.06328 | -62.87959 | 37113 ft | 458 kts | 53° |
| 2026-04-25 17:02 | 52.10167 | -62.79788 | 37146 ft | 457 kts | 53° |
| 2026-04-25 17:03 | 52.14035 | -62.71531 | 37138 ft | 458 kts | 53° |
| 2026-04-25 17:03 | 52.17875 | -62.63307 | 37133 ft | 458 kts | 54° |
| 2026-04-25 17:04 | 52.21740 | -62.55003 | 37138 ft | 459 kts | 54° |
| 2026-04-25 17:04 | 52.25578 | -62.46730 | 37119 ft | 459 kts | 54° |
| 2026-04-25 17:05 | 52.29440 | -62.38380 | 37120 ft | 459 kts | 54° |
| 2026-04-25 17:05 | 52.35187 | -62.25900 | 37117 ft | 459 kts | 54° |
| 2026-04-25 17:06 | 52.39021 | -62.17542 | 37122 ft | 459 kts | 54° |
| 2026-04-25 17:06 | 52.42853 | -62.09160 | 37121 ft | 459 kts | 54° |
| 2026-04-25 17:07 | 52.46682 | -62.00756 | 37168 ft | 458 kts | 54° |
| 2026-04-25 17:07 | 52.50488 | -61.92376 | 37213 ft | 458 kts | 54° |
| 2026-04-25 17:08 | 52.54289 | -61.83978 | 37290 ft | 457 kts | 54° |
| 2026-04-25 17:08 | 52.58081 | -61.75572 | 37348 ft | 457 kts | 54° |
| 2026-04-25 17:09 | 52.61868 | -61.67152 | 37396 ft | 457 kts | 54° |
| 2026-04-25 17:09 | 52.65627 | -61.58765 | 37488 ft | 456 kts | 54° |
| 2026-04-25 17:10 | 52.67502 | -61.54571 | 37718 ft | 453 kts | 54° |
| 2026-04-25 17:10 | 52.69361 | -61.50406 | 37916 ft | 450 kts | 54° |
| 2026-04-25 17:10 | 52.71218 | -61.46239 | 38118 ft | 449 kts | 54° |
| 2026-04-25 17:10 | 52.73071 | -61.42074 | 38155 ft | 451 kts | 54° |
| 2026-04-25 17:11 | 52.76781 | -61.33714 | 38154 ft | 455 kts | 54° |
| 2026-04-25 17:11 | 52.80537 | -61.25224 | 38155 ft | 457 kts | 55° |
| 2026-04-25 17:12 | 52.84270 | -61.16755 | 38153 ft | 458 kts | 55° |
| 2026-04-25 17:12 | 52.88035 | -61.08188 | 38154 ft | 459 kts | 55° |
| 2026-04-25 17:13 | 52.90520 | -61.02517 | 38157 ft | 460 kts | 55° |
| 2026-04-25 17:13 | 52.95529 | -60.91047 | 38153 ft | 460 kts | 55° |
| 2026-04-25 17:14 | 52.99281 | -60.82422 | 38158 ft | 460 kts | 55° |
| 2026-04-25 17:14 | 53.03003 | -60.73835 | 38132 ft | 460 kts | 55° |
| 2026-04-25 17:15 | 53.06774 | -60.65106 | 38127 ft | 460 kts | 55° |
| 2026-04-25 17:15 | 53.10486 | -60.56485 | 38122 ft | 460 kts | 55° |
| 2026-04-25 17:16 | 53.14218 | -60.47786 | 38125 ft | 460 kts | 55° |
| 2026-04-25 17:16 | 53.17916 | -60.39139 | 38123 ft | 460 kts | 55° |
| 2026-04-25 17:17 | 53.21629 | -60.30425 | 38126 ft | 460 kts | 56° |
| 2026-04-25 17:17 | 53.24737 | -60.23107 | 38122 ft | 460 kts | 56° |
| 2026-04-25 17:18 | 53.28420 | -60.14412 | 38122 ft | 460 kts | 56° |
| 2026-04-25 17:18 | 53.32109 | -60.05669 | 38114 ft | 460 kts | 56° |
| 2026-04-25 17:19 | 53.35777 | -59.96946 | 38113 ft | 460 kts | 56° |
| 2026-04-25 17:19 | 53.39460 | -59.88158 | 38105 ft | 460 kts | 56° |
| 2026-04-25 17:20 | 53.43130 | -59.79370 | 38110 ft | 460 kts | 56° |
| 2026-04-25 17:20 | 53.46799 | -59.70553 | 38104 ft | 460 kts | 56° |
| 2026-04-25 17:21 | 53.50455 | -59.61737 | 38103 ft | 460 kts | 56° |
| 2026-04-25 17:21 | 53.54101 | -59.52917 | 38101 ft | 459 kts | 56° |
| 2026-04-25 17:22 | 53.57129 | -59.45565 | 38102 ft | 459 kts | 56° |
| 2026-04-25 17:22 | 53.61355 | -59.35270 | 38098 ft | 459 kts | 56° |
| 2026-04-25 17:23 | 53.64984 | -59.26397 | 38091 ft | 459 kts | 56° |
| 2026-04-25 17:23 | 53.68611 | -59.17494 | 38092 ft | 459 kts | 56° |
| 2026-04-25 17:24 | 53.72202 | -59.08651 | 38091 ft | 459 kts | 56° |
| 2026-04-25 17:24 | 53.75809 | -58.99737 | 38084 ft | 459 kts | 56° |
| 2026-04-25 17:25 | 53.79420 | -58.90781 | 38082 ft | 459 kts | 56° |
| 2026-04-25 17:25 | 53.82993 | -58.81888 | 38082 ft | 459 kts | 56° |
| 2026-04-25 17:26 | 53.86584 | -58.72915 | 38087 ft | 460 kts | 56° |
| 2026-04-25 17:26 | 53.90162 | -58.63949 | 38083 ft | 460 kts | 56° |
| 2026-04-25 17:27 | 53.93746 | -58.54931 | 38083 ft | 460 kts | 56° |
| 2026-04-25 17:27 | 53.96729 | -58.47402 | 38083 ft | 460 kts | 56° |
| 2026-04-25 17:28 | 54.00870 | -58.36908 | 38085 ft | 461 kts | 56° |
| 2026-04-25 17:28 | 54.04446 | -58.27813 | 38079 ft | 461 kts | 57° |
| 2026-04-25 17:29 | 54.08005 | -58.18729 | 38078 ft | 461 kts | 57° |
| 2026-04-25 17:29 | 54.11546 | -58.09656 | 38070 ft | 461 kts | 57° |
| 2026-04-25 17:30 | 54.15088 | -58.00547 | 38065 ft | 461 kts | 57° |
| 2026-04-25 17:30 | 54.18608 | -57.91466 | 38070 ft | 461 kts | 57° |
| 2026-04-25 17:31 | 54.22143 | -57.82308 | 38060 ft | 461 kts | 57° |
| 2026-04-25 17:31 | 54.25676 | -57.73124 | 38055 ft | 461 kts | 57° |
| 2026-04-25 17:32 | 54.29180 | -57.63980 | 38048 ft | 461 kts | 57° |
| 2026-04-25 17:32 | 54.32661 | -57.54881 | 38047 ft | 461 kts | 57° |
| 2026-04-25 17:33 | 54.36201 | -57.45602 | 38040 ft | 462 kts | 57° |
| 2026-04-25 17:33 | 54.39719 | -57.36345 | 38031 ft | 461 kts | 57° |
| 2026-04-25 17:34 | 54.43207 | -57.27136 | 38023 ft | 461 kts | 57° |
| 2026-04-25 17:34 | 54.46713 | -57.17841 | 38016 ft | 461 kts | 57° |
| 2026-04-25 17:35 | 54.50146 | -57.08662 | 38036 ft | 456 kts | 58° |
| 2026-04-25 17:35 | 54.52840 | -56.98760 | 38039 ft | 457 kts | 68° |
| 2026-04-25 17:36 | 54.54454 | -56.88244 | 38033 ft | 459 kts | 79° |
| 2026-04-25 17:36 | 54.55445 | -56.77370 | 38026 ft | 459 kts | 78° |
| 2026-04-25 17:37 | 54.56493 | -56.66512 | 38021 ft | 458 kts | 78° |
| 2026-04-25 17:37 | 54.57519 | -56.55666 | 37985 ft | 459 kts | 79° |
| 2026-04-25 17:38 | 54.58355 | -56.46639 | 37986 ft | 458 kts | 79° |
| 2026-04-25 17:38 | 54.59510 | -56.34001 | 37972 ft | 459 kts | 79° |
| 2026-04-25 17:39 | 54.60491 | -56.23129 | 37965 ft | 458 kts | 79° |
| 2026-04-25 17:39 | 54.61462 | -56.12266 | 37965 ft | 458 kts | 79° |
| 2026-04-25 17:40 | 54.62426 | -56.01375 | 37961 ft | 458 kts | 79° |
| 2026-04-25 17:40 | 54.63379 | -55.90493 | 37942 ft | 458 kts | 79° |
| 2026-04-25 17:41 | 54.64318 | -55.79658 | 37930 ft | 458 kts | 79° |
| 2026-04-25 17:41 | 54.65252 | -55.68764 | 37939 ft | 458 kts | 79° |
| 2026-04-25 17:42 | 54.66176 | -55.57867 | 37941 ft | 458 kts | 79° |
| 2026-04-25 17:42 | 54.67091 | -55.46960 | 37943 ft | 458 kts | 80° |
| 2026-04-25 17:43 | 54.67994 | -55.36054 | 37910 ft | 458 kts | 80° |
| 2026-04-25 17:43 | 54.68888 | -55.25128 | 37932 ft | 457 kts | 80° |
| 2026-04-25 17:44 | 54.69767 | -55.14284 | 37946 ft | 457 kts | 80° |
| 2026-04-25 17:44 | 54.70642 | -55.03372 | 37934 ft | 458 kts | 80° |
| 2026-04-25 17:45 | 54.71220 | -54.96079 | 37924 ft | 458 kts | 80° |
| 2026-04-25 17:45 | 54.72359 | -54.81539 | 37918 ft | 458 kts | 80° |
| 2026-04-25 17:46 | 54.73197 | -54.70688 | 37921 ft | 457 kts | 80° |
| 2026-04-25 17:46 | 54.74030 | -54.59764 | 37876 ft | 458 kts | 81° |
| 2026-04-25 17:47 | 54.74856 | -54.48817 | 37876 ft | 458 kts | 81° |
| 2026-04-25 17:47 | 54.75668 | -54.37908 | 37916 ft | 456 kts | 81° |
| 2026-04-25 17:48 | 54.76866 | -54.21591 | 37895 ft | 456 kts | 81° |
| 2026-04-25 17:49 | 54.77653 | -54.10679 | 37885 ft | 456 kts | 81° |
| 2026-04-25 17:49 | 54.78430 | -53.99772 | 37889 ft | 455 kts | 81° |
| 2026-04-25 17:50 | 54.79066 | -53.90716 | 37885 ft | 455 kts | 81° |
| 2026-04-25 17:50 | 54.79945 | -53.78044 | 37878 ft | 455 kts | 81° |
| 2026-04-25 17:51 | 54.80691 | -53.67142 | 37871 ft | 455 kts | 81° |
| 2026-04-25 17:51 | 54.81429 | -53.56222 | 37865 ft | 456 kts | 81° |
| 2026-04-25 17:52 | 54.82158 | -53.45280 | 37864 ft | 456 kts | 82° |
| 2026-04-25 17:52 | 54.82871 | -53.34419 | 37859 ft | 456 kts | 82° |
| 2026-04-25 17:53 | 54.83581 | -53.23479 | 37853 ft | 457 kts | 82° |
| 2026-04-25 17:53 | 54.84282 | -53.12485 | 37851 ft | 458 kts | 82° |
| 2026-04-25 17:54 | 54.84970 | -53.01547 | 37842 ft | 458 kts | 82° |
| 2026-04-25 17:54 | 54.85651 | -52.90551 | 37842 ft | 458 kts | 82° |
| 2026-04-25 17:55 | 54.86323 | -52.79549 | 37839 ft | 458 kts | 82° |
| 2026-04-25 17:55 | 54.86986 | -52.68533 | 37830 ft | 459 kts | 82° |
| 2026-04-25 17:56 | 54.87638 | -52.57500 | 37829 ft | 458 kts | 82° |
| 2026-04-25 17:56 | 54.88279 | -52.46531 | 37821 ft | 458 kts | 82° |
| 2026-04-25 17:57 | 54.88911 | -52.35499 | 37819 ft | 458 kts | 82° |
| 2026-04-25 17:57 | 54.89535 | -52.24461 | 37815 ft | 458 kts | 82° |
| 2026-04-25 17:58 | 54.90149 | -52.13423 | 37815 ft | 459 kts | 83° |
| 2026-04-25 17:58 | 54.90747 | -52.02448 | 37807 ft | 459 kts | 83° |
| 2026-04-25 17:59 | 54.91244 | -51.93254 | 37800 ft | 458 kts | 83° |
| 2026-04-25 17:59 | 54.91828 | -51.82240 | 37798 ft | 458 kts | 83° |
| 2026-04-25 18:00 | 54.92399 | -51.71211 | 37793 ft | 457 kts | 83° |
| 2026-04-25 18:00 | 54.92967 | -51.60181 | 37791 ft | 458 kts | 83° |
| 2026-04-25 18:01 | 54.93522 | -51.49124 | 37790 ft | 458 kts | 83° |
| 2026-04-25 18:01 | 54.94062 | -51.38114 | 37781 ft | 459 kts | 84° |
| 2026-04-25 18:02 | 54.94597 | -51.27049 | 37781 ft | 459 kts | 84° |
| 2026-04-25 18:02 | 54.95119 | -51.15999 | 37777 ft | 458 kts | 84° |
| 2026-04-25 18:03 | 54.95632 | -51.04929 | 37774 ft | 458 kts | 84° |
| 2026-04-25 18:03 | 54.96122 | -50.94208 | 37768 ft | 458 kts | 84° |
| 2026-04-25 18:04 | 54.96619 | -50.83134 | 37772 ft | 459 kts | 84° |
| 2026-04-25 18:04 | 54.97101 | -50.72130 | 37762 ft | 459 kts | 84° |
| 2026-04-25 18:05 | 54.97576 | -50.61045 | 37757 ft | 459 kts | 85° |
| 2026-04-25 18:05 | 54.98039 | -50.49936 | 37754 ft | 459 kts | 85° |
| 2026-04-25 18:06 | 54.98495 | -50.38834 | 37751 ft | 459 kts | 85° |
| 2026-04-25 18:06 | 54.98940 | -50.27770 | 37745 ft | 460 kts | 85° |
| 2026-04-25 18:07 | 54.99380 | -50.16659 | 37744 ft | 460 kts | 85° |
| 2026-04-25 18:07 | 54.99816 | -50.05523 | 37742 ft | 460 kts | 85° |
| 2026-04-25 18:08 | 55.00700 | -49.94518 | 37739 ft | 460 kts | 76° |
| 2026-04-25 18:08 | 55.02284 | -49.83699 | 37734 ft | 460 kts | 75° |
| 2026-04-25 18:09 | 55.03859 | -49.72861 | 37734 ft | 461 kts | 76° |
| 2026-04-25 18:09 | 55.05409 | -49.61998 | 37731 ft | 461 kts | 76° |
| 2026-04-25 18:10 | 55.06944 | -49.51115 | 37730 ft | 461 kts | 76° |
| 2026-04-25 18:10 | 55.08455 | -49.40311 | 37726 ft | 462 kts | 76° |
| 2026-04-25 18:11 | 55.09966 | -49.29396 | 37728 ft | 462 kts | 76° |
| 2026-04-25 18:11 | 55.11462 | -49.18499 | 37727 ft | 463 kts | 76° |
| 2026-04-25 18:12 | 55.12956 | -49.07524 | 37726 ft | 463 kts | 77° |
| 2026-04-25 18:12 | 55.14430 | -48.96617 | 37719 ft | 463 kts | 77° |
| 2026-04-25 18:13 | 55.15902 | -48.85655 | 37721 ft | 463 kts | 77° |
| 2026-04-25 18:13 | 55.17368 | -48.74646 | 37719 ft | 463 kts | 77° |
| 2026-04-25 18:14 | 55.19544 | -48.58154 | 37721 ft | 464 kts | 77° |
| 2026-04-25 18:14 | 55.20975 | -48.47202 | 37720 ft | 464 kts | 77° |
| 2026-04-25 18:15 | 55.22405 | -48.36177 | 37715 ft | 464 kts | 77° |
| 2026-04-25 18:15 | 55.23830 | -48.25110 | 37711 ft | 464 kts | 77° |
| 2026-04-25 18:16 | 55.25234 | -48.14113 | 37710 ft | 464 kts | 78° |
| 2026-04-25 18:17 | 55.27337 | -47.97485 | 37709 ft | 465 kts | 78° |
| 2026-04-25 18:17 | 55.28720 | -47.86440 | 37716 ft | 465 kts | 78° |
| 2026-04-25 18:18 | 55.30099 | -47.75343 | 37710 ft | 465 kts | 78° |
| 2026-04-25 18:18 | 55.31470 | -47.64230 | 37709 ft | 465 kts | 78° |
| 2026-04-25 18:19 | 55.32821 | -47.53172 | 37713 ft | 465 kts | 78° |
| 2026-04-25 18:19 | 55.34170 | -47.42053 | 37712 ft | 466 kts | 78° |
| 2026-04-25 18:20 | 55.35511 | -47.30905 | 37709 ft | 466 kts | 78° |
| 2026-04-25 18:20 | 55.36844 | -47.19737 | 37709 ft | 466 kts | 79° |
| 2026-04-25 18:21 | 55.38159 | -47.08627 | 37709 ft | 466 kts | 79° |
| 2026-04-25 18:21 | 55.39472 | -46.97429 | 37707 ft | 466 kts | 79° |
| 2026-04-25 18:22 | 55.40777 | -46.86215 | 37709 ft | 467 kts | 79° |
| 2026-04-25 18:22 | 55.42063 | -46.75066 | 37712 ft | 467 kts | 79° |
| 2026-04-25 18:23 | 55.43346 | -46.63846 | 37707 ft | 467 kts | 79° |
| 2026-04-25 18:23 | 55.44612 | -46.52679 | 37708 ft | 467 kts | 79° |
| 2026-04-25 18:24 | 55.45877 | -46.41424 | 37706 ft | 467 kts | 79° |
| 2026-04-25 18:24 | 55.47124 | -46.30236 | 37707 ft | 467 kts | 79° |
| 2026-04-25 18:25 | 55.48369 | -46.18969 | 37710 ft | 468 kts | 79° |
| 2026-04-25 18:25 | 55.49602 | -46.07695 | 37715 ft | 468 kts | 79° |
| 2026-04-25 18:26 | 55.50826 | -45.96408 | 37707 ft | 468 kts | 80° |
| 2026-04-25 18:26 | 55.52035 | -45.85160 | 37712 ft | 469 kts | 80° |
| 2026-04-25 18:27 | 55.53242 | -45.73844 | 37715 ft | 469 kts | 80° |
| 2026-04-25 18:27 | 55.54436 | -45.62520 | 37713 ft | 469 kts | 80° |
| 2026-04-25 18:28 | 55.55622 | -45.51172 | 37717 ft | 470 kts | 80° |
| 2026-04-25 18:28 | 55.56794 | -45.39861 | 37714 ft | 470 kts | 81° |
| 2026-04-25 18:29 | 55.58540 | -45.22785 | 37718 ft | 470 kts | 81° |
| 2026-04-25 18:30 | 55.60829 | -45.00032 | 37721 ft | 471 kts | 81° |
| 2026-04-25 18:30 | 55.61962 | -44.88599 | 37719 ft | 471 kts | 81° |
| 2026-04-25 18:31 | 55.63078 | -44.77225 | 37724 ft | 471 kts | 81° |
| 2026-04-25 18:31 | 55.64192 | -44.65755 | 37729 ft | 472 kts | 81° |
| 2026-04-25 18:32 | 55.65287 | -44.54360 | 37726 ft | 472 kts | 82° |
| 2026-04-25 18:32 | 55.66384 | -44.42839 | 37727 ft | 473 kts | 82° |
| 2026-04-25 18:33 | 55.67465 | -44.31339 | 37729 ft | 473 kts | 82° |
| 2026-04-25 18:33 | 55.68539 | -44.19823 | 37731 ft | 474 kts | 82° |
| 2026-04-25 18:34 | 55.69596 | -44.08358 | 37729 ft | 474 kts | 82° |
| 2026-04-25 18:34 | 55.70649 | -43.96816 | 37734 ft | 474 kts | 82° |
| 2026-04-25 18:35 | 55.71693 | -43.85249 | 37735 ft | 475 kts | 82° |
| 2026-04-25 18:35 | 55.72729 | -43.73644 | 37734 ft | 476 kts | 82° |
| 2026-04-25 18:36 | 55.73754 | -43.62033 | 37736 ft | 476 kts | 82° |
| 2026-04-25 18:36 | 55.74761 | -43.50485 | 37737 ft | 477 kts | 83° |
| 2026-04-25 18:37 | 55.75766 | -43.38843 | 37736 ft | 477 kts | 83° |
| 2026-04-25 18:37 | 55.76762 | -43.27157 | 37737 ft | 477 kts | 83° |
| 2026-04-25 18:38 | 55.77740 | -43.15566 | 37740 ft | 478 kts | 83° |
| 2026-04-25 18:38 | 55.78717 | -43.03850 | 37741 ft | 478 kts | 83° |
| 2026-04-25 18:39 | 55.79681 | -42.92135 | 37747 ft | 479 kts | 83° |
| 2026-04-25 18:39 | 55.80636 | -42.80392 | 37747 ft | 479 kts | 83° |
| 2026-04-25 18:40 | 55.81574 | -42.68711 | 37748 ft | 479 kts | 83° |
| 2026-04-25 18:40 | 55.82508 | -42.56963 | 37750 ft | 480 kts | 83° |
| 2026-04-25 18:41 | 55.83429 | -42.45205 | 37748 ft | 480 kts | 83° |
| 2026-04-25 18:41 | 55.84342 | -42.33411 | 37754 ft | 481 kts | 84° |
| 2026-04-25 18:42 | 55.84941 | -42.25585 | 37747 ft | 481 kts | 84° |
| 2026-04-25 18:42 | 55.85984 | -42.11771 | 37724 ft | 482 kts | 84° |
| 2026-04-25 18:43 | 55.87011 | -41.97999 | 37720 ft | 482 kts | 84° |
| 2026-04-25 18:43 | 55.87740 | -41.88069 | 37723 ft | 483 kts | 84° |
| 2026-04-25 18:44 | 55.88597 | -41.76273 | 37723 ft | 483 kts | 84° |
| 2026-04-25 18:44 | 55.89446 | -41.64403 | 37728 ft | 483 kts | 84° |
| 2026-04-25 18:45 | 55.90283 | -41.52523 | 37731 ft | 484 kts | 84° |
| 2026-04-25 18:45 | 55.91114 | -41.40578 | 37731 ft | 484 kts | 84° |
| 2026-04-25 18:46 | 55.91933 | -41.28652 | 37729 ft | 485 kts | 85° |
| 2026-04-25 18:46 | 55.92736 | -41.16766 | 37732 ft | 485 kts | 85° |
| 2026-04-25 18:47 | 55.93537 | -41.04753 | 37735 ft | 485 kts | 85° |
| 2026-04-25 18:47 | 55.94319 | -40.92827 | 37734 ft | 486 kts | 85° |
| 2026-04-25 18:48 | 55.95094 | -40.80832 | 37737 ft | 486 kts | 85° |
| 2026-04-25 18:48 | 55.95856 | -40.68844 | 37738 ft | 486 kts | 85° |
| 2026-04-25 18:49 | 55.96608 | -40.56843 | 37738 ft | 487 kts | 85° |
| 2026-04-25 18:49 | 55.97346 | -40.44873 | 37736 ft | 487 kts | 85° |
| 2026-04-25 18:50 | 55.98084 | -40.32824 | 37745 ft | 487 kts | 85° |
| 2026-04-25 18:50 | 55.98813 | -40.20770 | 37757 ft | 488 kts | 85° |
| 2026-04-25 18:51 | 55.99412 | -40.10734 | 37756 ft | 488 kts | 85° |
| 2026-04-25 18:51 | 56.00162 | -39.96620 | 37751 ft | 488 kts | 88° |
| 2026-04-25 18:52 | 56.00551 | -39.84566 | 37745 ft | 488 kts | 88° |
| 2026-04-25 18:52 | 56.01043 | -39.72432 | 37757 ft | 489 kts | 87° |
| 2026-04-25 18:53 | 56.01523 | -39.60366 | 37750 ft | 489 kts | 88° |
| 2026-04-25 18:53 | 56.01985 | -39.48201 | 37754 ft | 489 kts | 88° |
| 2026-04-25 18:54 | 56.02645 | -39.29945 | 37760 ft | 490 kts | 88° |
| 2026-04-25 18:55 | 56.03063 | -39.17778 | 37753 ft | 490 kts | 88° |
| 2026-04-25 18:55 | 56.03467 | -39.05675 | 37760 ft | 490 kts | 88° |
| 2026-04-25 18:56 | 56.03861 | -38.93500 | 37762 ft | 490 kts | 88° |
| 2026-04-25 18:56 | 56.04243 | -38.81314 | 37771 ft | 490 kts | 88° |
| 2026-04-25 18:57 | 56.04612 | -38.69169 | 37765 ft | 491 kts | 88° |
| 2026-04-25 18:57 | 56.04971 | -38.56940 | 37767 ft | 491 kts | 89° |
| 2026-04-25 18:58 | 56.05318 | -38.44731 | 37771 ft | 491 kts | 89° |
| 2026-04-25 18:58 | 56.05814 | -38.26468 | 37774 ft | 491 kts | 89° |
| 2026-04-25 18:59 | 56.06437 | -38.01987 | 37776 ft | 492 kts | 89° |
| 2026-04-25 19:00 | 56.06870 | -37.83677 | 37778 ft | 492 kts | 89° |
| 2026-04-25 19:01 | 56.07279 | -37.65270 | 37779 ft | 493 kts | 89° |
| 2026-04-25 19:01 | 56.07535 | -37.53078 | 37779 ft | 493 kts | 89° |
| 2026-04-25 19:02 | 56.07898 | -37.34668 | 37784 ft | 493 kts | 90° |
| 2026-04-25 19:03 | 56.08161 | -37.20344 | 37792 ft | 494 kts | 90° |
| 2026-04-25 19:03 | 56.08442 | -37.03970 | 37790 ft | 494 kts | 90° |
| 2026-04-25 19:04 | 56.08733 | -36.85479 | 37794 ft | 494 kts | 90° |
| 2026-04-25 19:05 | 56.09077 | -36.60898 | 37797 ft | 495 kts | 90° |
| 2026-04-25 19:06 | 56.09231 | -36.48557 | 37797 ft | 495 kts | 90° |
| 2026-04-25 19:06 | 56.09440 | -36.30032 | 37804 ft | 496 kts | 90° |
| 2026-04-25 19:07 | 56.09620 | -36.11550 | 37807 ft | 496 kts | 91° |
| 2026-04-25 19:08 | 56.09773 | -35.93017 | 37810 ft | 496 kts | 91° |
| 2026-04-25 19:09 | 56.09923 | -35.70343 | 37810 ft | 497 kts | 91° |
| 2026-04-25 19:10 | 56.10023 | -35.49745 | 37813 ft | 497 kts | 91° |
| 2026-04-25 19:10 | 56.10066 | -35.37369 | 37816 ft | 497 kts | 91° |
| 2026-04-25 19:11 | 56.10097 | -35.24952 | 37818 ft | 497 kts | 91° |
| 2026-04-25 19:11 | 56.10116 | -35.12632 | 37819 ft | 498 kts | 91° |
| 2026-04-25 19:12 | 56.10123 | -35.00195 | 37820 ft | 498 kts | 91° |
| 2026-04-25 19:12 | 56.10116 | -34.87752 | 37824 ft | 498 kts | 91° |
| 2026-04-25 19:13 | 56.10098 | -34.75336 | 37822 ft | 499 kts | 92° |
| 2026-04-25 19:13 | 56.10067 | -34.62963 | 37827 ft | 499 kts | 92° |
| 2026-04-25 19:14 | 56.10024 | -34.50514 | 37828 ft | 499 kts | 92° |
| 2026-04-25 19:14 | 56.09968 | -34.38156 | 37828 ft | 499 kts | 92° |
| 2026-04-25 19:15 | 56.09900 | -34.25684 | 37829 ft | 499 kts | 92° |
| 2026-04-25 19:15 | 56.09819 | -34.13296 | 37836 ft | 500 kts | 92° |
| 2026-04-25 19:16 | 56.09728 | -34.01047 | 37835 ft | 500 kts | 92° |
| 2026-04-25 19:16 | 56.09622 | -33.88582 | 37835 ft | 500 kts | 92° |
| 2026-04-25 19:17 | 56.09504 | -33.76169 | 37839 ft | 500 kts | 92° |
| 2026-04-25 19:17 | 56.09372 | -33.63692 | 37843 ft | 500 kts | 92° |
| 2026-04-25 19:18 | 56.09230 | -33.51294 | 37842 ft | 500 kts | 92° |
| 2026-04-25 19:18 | 56.09074 | -33.38830 | 37845 ft | 501 kts | 93° |
| 2026-04-25 19:19 | 56.08905 | -33.26350 | 37845 ft | 501 kts | 93° |
| 2026-04-25 19:19 | 56.08723 | -33.13889 | 37850 ft | 501 kts | 93° |
| 2026-04-25 19:20 | 56.08529 | -33.01403 | 37848 ft | 501 kts | 93° |
| 2026-04-25 19:20 | 56.08323 | -32.88900 | 37853 ft | 501 kts | 93° |
| 2026-04-25 19:21 | 56.08103 | -32.76418 | 37854 ft | 501 kts | 93° |
| 2026-04-25 19:21 | 56.07752 | -32.57740 | 37855 ft | 502 kts | 93° |
| 2026-04-25 19:22 | 56.07501 | -32.45265 | 37854 ft | 502 kts | 94° |
| 2026-04-25 19:23 | 56.07100 | -32.26516 | 37863 ft | 502 kts | 94° |
| 2026-04-25 19:23 | 56.06672 | -32.07803 | 37865 ft | 502 kts | 94° |
| 2026-04-25 19:24 | 56.06370 | -31.95289 | 37861 ft | 502 kts | 94° |
| 2026-04-25 19:25 | 56.05730 | -31.70369 | 37869 ft | 503 kts | 94° |
| 2026-04-25 19:25 | 56.05390 | -31.57852 | 37859 ft | 503 kts | 94° |
| 2026-04-25 19:26 | 56.05037 | -31.45336 | 37860 ft | 503 kts | 94° |
| 2026-04-25 19:26 | 56.04671 | -31.32837 | 37880 ft | 503 kts | 94° |
| 2026-04-25 19:27 | 56.04422 | -31.24548 | 37866 ft | 503 kts | 94° |
| 2026-04-25 19:27 | 56.03905 | -31.07902 | 37875 ft | 503 kts | 94° |
| 2026-04-25 19:28 | 56.03567 | -30.97404 | 37878 ft | 504 kts | 95° |
| 2026-04-25 19:28 | 56.03155 | -30.84963 | 37878 ft | 504 kts | 95° |
| 2026-04-25 19:29 | 56.02726 | -30.72424 | 37877 ft | 504 kts | 95° |
| 2026-04-25 19:29 | 56.02289 | -30.59984 | 37874 ft | 504 kts | 95° |
| 2026-04-25 19:30 | 56.01836 | -30.47449 | 37872 ft | 504 kts | 95° |
| 2026-04-25 19:30 | 56.01374 | -30.34924 | 37880 ft | 504 kts | 95° |
| 2026-04-25 19:31 | 56.00909 | -30.22473 | 37880 ft | 504 kts | 95° |
| 2026-04-25 19:31 | 56.00430 | -30.09953 | 37884 ft | 504 kts | 95° |
| 2026-04-25 19:32 | 55.99947 | -29.97436 | 37886 ft | 504 kts | 94° |
| 2026-04-25 19:32 | 56.00225 | -29.87023 | 37887 ft | 505 kts | 85° |
| 2026-04-25 19:33 | 56.01015 | -29.72411 | 37885 ft | 505 kts | 86° |
| 2026-04-25 19:33 | 56.01547 | -29.59976 | 37883 ft | 505 kts | 86° |
| 2026-04-25 19:34 | 56.02025 | -29.47343 | 37883 ft | 505 kts | 87° |
| 2026-04-25 19:34 | 56.02479 | -29.34815 | 37888 ft | 506 kts | 87° |
| 2026-04-25 19:35 | 56.02915 | -29.22268 | 37887 ft | 506 kts | 87° |
| 2026-04-25 19:35 | 56.03338 | -29.09727 | 37884 ft | 506 kts | 87° |
| 2026-04-25 19:36 | 56.03746 | -28.97233 | 37890 ft | 506 kts | 87° |
| 2026-04-25 19:36 | 56.04144 | -28.84675 | 37891 ft | 506 kts | 88° |
| 2026-04-25 19:37 | 56.04529 | -28.72097 | 37898 ft | 506 kts | 88° |
| 2026-04-25 19:37 | 56.04901 | -28.59544 | 37894 ft | 506 kts | 88° |
| 2026-04-25 19:38 | 56.05262 | -28.46929 | 37899 ft | 506 kts | 88° |
| 2026-04-25 19:38 | 56.05608 | -28.34361 | 37901 ft | 506 kts | 88° |
| 2026-04-25 19:39 | 56.05941 | -28.21846 | 37894 ft | 506 kts | 88° |
| 2026-04-25 19:39 | 56.06261 | -28.09285 | 37898 ft | 506 kts | 88° |
| 2026-04-25 19:40 | 56.06570 | -27.96682 | 37897 ft | 506 kts | 88° |
| 2026-04-25 19:40 | 56.06865 | -27.84115 | 37901 ft | 506 kts | 88° |
| 2026-04-25 19:41 | 56.07148 | -27.71520 | 37899 ft | 506 kts | 88° |
| 2026-04-25 19:41 | 56.07373 | -27.61070 | 37899 ft | 506 kts | 88° |
| 2026-04-25 19:42 | 56.07673 | -27.46436 | 37899 ft | 505 kts | 89° |
| 2026-04-25 19:42 | 56.07917 | -27.33837 | 37900 ft | 505 kts | 89° |
| 2026-04-25 19:43 | 56.08148 | -27.21258 | 37905 ft | 506 kts | 89° |
| 2026-04-25 19:43 | 56.08368 | -27.08620 | 37902 ft | 506 kts | 89° |
| 2026-04-25 19:44 | 56.08573 | -26.96107 | 37901 ft | 506 kts | 89° |
| 2026-04-25 19:44 | 56.08766 | -26.83505 | 37905 ft | 506 kts | 89° |
| 2026-04-25 19:45 | 56.08946 | -26.70863 | 37905 ft | 506 kts | 89° |
| 2026-04-25 19:45 | 56.09114 | -26.58284 | 37907 ft | 506 kts | 89° |
| 2026-04-25 19:46 | 56.09268 | -26.45751 | 37907 ft | 506 kts | 89° |
| 2026-04-25 19:46 | 56.09409 | -26.33160 | 37909 ft | 506 kts | 90° |
| 2026-04-25 19:47 | 56.09539 | -26.20530 | 37909 ft | 506 kts | 90° |
| 2026-04-25 19:47 | 56.09655 | -26.07934 | 37908 ft | 505 kts | 90° |
| 2026-04-25 19:48 | 56.09757 | -25.95412 | 37908 ft | 506 kts | 90° |
| 2026-04-25 19:48 | 56.09848 | -25.82821 | 37908 ft | 505 kts | 90° |
| 2026-04-25 19:49 | 56.09902 | -25.74369 | 37913 ft | 506 kts | 90° |
| 2026-04-25 19:49 | 56.09991 | -25.57595 | 37910 ft | 506 kts | 90° |
| 2026-04-25 19:50 | 56.10065 | -25.38701 | 37909 ft | 506 kts | 90° |
| 2026-04-25 19:51 | 56.10098 | -25.26107 | 37912 ft | 506 kts | 91° |
| 2026-04-25 19:51 | 56.10118 | -25.13488 | 37915 ft | 506 kts | 91° |
| 2026-04-25 19:52 | 56.10125 | -25.00950 | 37912 ft | 506 kts | 91° |
| 2026-04-25 19:52 | 56.10120 | -24.88331 | 37913 ft | 506 kts | 91° |
| 2026-04-25 19:53 | 56.10101 | -24.75712 | 37916 ft | 506 kts | 91° |
| 2026-04-25 19:53 | 56.10070 | -24.63168 | 37914 ft | 506 kts | 91° |
| 2026-04-25 19:54 | 56.10026 | -24.50555 | 37919 ft | 506 kts | 91° |
| 2026-04-25 19:54 | 56.09970 | -24.37950 | 37918 ft | 506 kts | 91° |
| 2026-04-25 19:55 | 56.09900 | -24.25328 | 37918 ft | 506 kts | 92° |
| 2026-04-25 19:55 | 56.09817 | -24.12714 | 37922 ft | 506 kts | 92° |
| 2026-04-25 19:56 | 56.09723 | -24.00183 | 37924 ft | 506 kts | 92° |
| 2026-04-25 19:56 | 56.09614 | -23.87506 | 37927 ft | 506 kts | 92° |
| 2026-04-25 19:57 | 56.09493 | -23.74954 | 37921 ft | 506 kts | 92° |
| 2026-04-25 19:57 | 56.09359 | -23.62358 | 37930 ft | 506 kts | 92° |
| 2026-04-25 19:58 | 56.09212 | -23.49708 | 37925 ft | 506 kts | 92° |
| 2026-04-25 19:58 | 56.09053 | -23.37101 | 37924 ft | 506 kts | 92° |
| 2026-04-25 19:59 | 56.08881 | -23.24572 | 37929 ft | 506 kts | 93° |
| 2026-04-25 19:59 | 56.08696 | -23.11946 | 37930 ft | 506 kts | 93° |
| 2026-04-25 20:00 | 56.08497 | -22.99328 | 37932 ft | 506 kts | 93° |
| 2026-04-25 20:00 | 56.08287 | -22.86717 | 37927 ft | 506 kts | 93° |
| 2026-04-25 20:01 | 56.07946 | -22.67792 | 37935 ft | 507 kts | 94° |
| 2026-04-25 20:01 | 56.07704 | -22.55258 | 37935 ft | 507 kts | 94° |
| 2026-04-25 20:02 | 56.07447 | -22.42615 | 37945 ft | 507 kts | 94° |
| 2026-04-25 20:02 | 56.07178 | -22.29989 | 37936 ft | 507 kts | 94° |
| 2026-04-25 20:03 | 56.06895 | -22.17348 | 37950 ft | 507 kts | 94° |
| 2026-04-25 20:03 | 56.06602 | -22.04806 | 37937 ft | 507 kts | 94° |
| 2026-04-25 20:04 | 56.06294 | -21.92176 | 37946 ft | 507 kts | 94° |
| 2026-04-25 20:04 | 56.05973 | -21.79548 | 37943 ft | 507 kts | 94° |
| 2026-04-25 20:05 | 56.05639 | -21.66910 | 37945 ft | 507 kts | 95° |
| 2026-04-25 20:05 | 56.05295 | -21.54379 | 37962 ft | 507 kts | 95° |
| 2026-04-25 20:06 | 56.04936 | -21.41795 | 37960 ft | 507 kts | 95° |
| 2026-04-25 20:06 | 56.04563 | -21.29150 | 37950 ft | 507 kts | 95° |
| 2026-04-25 20:07 | 56.04178 | -21.16546 | 37958 ft | 507 kts | 95° |
| 2026-04-25 20:07 | 56.03782 | -21.04011 | 37972 ft | 507 kts | 95° |
| 2026-04-25 20:08 | 56.03370 | -20.91373 | 37971 ft | 507 kts | 95° |
| 2026-04-25 20:08 | 56.03018 | -20.80897 | 37969 ft | 507 kts | 96° |
| 2026-04-25 20:09 | 56.02583 | -20.68287 | 37966 ft | 508 kts | 96° |
| 2026-04-25 20:09 | 56.02135 | -20.55694 | 37968 ft | 508 kts | 96° |
| 2026-04-25 20:10 | 56.01675 | -20.43082 | 37972 ft | 508 kts | 96° |
| 2026-04-25 20:10 | 56.01208 | -20.30468 | 37977 ft | 508 kts | 96° |
| 2026-04-25 20:11 | 56.00737 | -20.17935 | 37980 ft | 508 kts | 96° |
| 2026-04-25 20:11 | 56.00251 | -20.05344 | 37977 ft | 508 kts | 96° |
| 2026-04-25 20:12 | 55.99918 | -19.92725 | 37981 ft | 510 kts | 91° |
| 2026-04-25 20:12 | 56.00206 | -19.82103 | 37980 ft | 511 kts | 89° |
| 2026-04-25 20:13 | 56.00605 | -19.67338 | 37985 ft | 510 kts | 90° |
| 2026-04-25 20:13 | 56.00842 | -19.54711 | 37991 ft | 510 kts | 90° |
| 2026-04-25 20:14 | 56.01045 | -19.42018 | 37991 ft | 510 kts | 91° |
| 2026-04-25 20:14 | 56.01234 | -19.29283 | 37993 ft | 511 kts | 91° |
| 2026-04-25 20:15 | 56.01411 | -19.16636 | 37996 ft | 511 kts | 91° |
| 2026-04-25 20:15 | 56.01576 | -19.03927 | 38011 ft | 511 kts | 91° |
| 2026-04-25 20:16 | 56.01728 | -18.91217 | 38006 ft | 511 kts | 91° |
| 2026-04-25 20:16 | 56.01866 | -18.78615 | 38010 ft | 510 kts | 91° |
| 2026-04-25 20:17 | 56.01992 | -18.65916 | 38014 ft | 510 kts | 91° |
| 2026-04-25 20:17 | 56.02104 | -18.53213 | 38015 ft | 510 kts | 91° |
| 2026-04-25 20:18 | 56.02203 | -18.40541 | 38018 ft | 510 kts | 92° |
| 2026-04-25 20:18 | 56.02290 | -18.27833 | 38024 ft | 510 kts | 92° |
| 2026-04-25 20:19 | 56.02363 | -18.15164 | 38029 ft | 510 kts | 92° |
| 2026-04-25 20:19 | 56.02423 | -18.02498 | 38029 ft | 509 kts | 92° |
| 2026-04-25 20:20 | 56.02471 | -17.89825 | 38032 ft | 509 kts | 92° |
| 2026-04-25 20:20 | 56.02505 | -17.77171 | 38034 ft | 509 kts | 92° |
| 2026-04-25 20:21 | 56.02526 | -17.64591 | 38036 ft | 509 kts | 92° |
| 2026-04-25 20:21 | 56.02535 | -17.51931 | 38037 ft | 508 kts | 92° |
| 2026-04-25 20:22 | 56.02532 | -17.41422 | 38050 ft | 508 kts | 93° |
| 2026-04-25 20:22 | 56.02513 | -17.26625 | 38046 ft | 508 kts | 93° |
| 2026-04-25 20:23 | 56.02483 | -17.14032 | 38055 ft | 508 kts | 93° |
| 2026-04-25 20:23 | 56.02441 | -17.01390 | 38050 ft | 508 kts | 93° |
| 2026-04-25 20:24 | 56.02384 | -16.88746 | 38050 ft | 508 kts | 94° |
| 2026-04-25 20:24 | 56.02315 | -16.76102 | 38052 ft | 508 kts | 94° |
| 2026-04-25 20:25 | 56.02233 | -16.63470 | 38062 ft | 508 kts | 94° |
| 2026-04-25 20:25 | 56.02139 | -16.50924 | 38060 ft | 507 kts | 94° |
| 2026-04-25 20:26 | 56.02031 | -16.38299 | 38065 ft | 507 kts | 94° |
| 2026-04-25 20:26 | 56.01911 | -16.25715 | 38066 ft | 507 kts | 94° |
| 2026-04-25 20:27 | 56.01778 | -16.13090 | 38070 ft | 507 kts | 94° |
| 2026-04-25 20:27 | 56.01632 | -16.00496 | 38071 ft | 507 kts | 94° |
| 2026-04-25 20:28 | 56.01473 | -15.87905 | 38076 ft | 507 kts | 94° |
| 2026-04-25 20:28 | 56.01301 | -15.75283 | 38086 ft | 507 kts | 95° |
| 2026-04-25 20:29 | 56.01118 | -15.62774 | 38071 ft | 507 kts | 95° |
| 2026-04-25 20:29 | 56.00921 | -15.50231 | 38078 ft | 507 kts | 95° |
| 2026-04-25 20:30 | 56.00711 | -15.37645 | 38091 ft | 506 kts | 95° |
| 2026-04-25 20:30 | 56.00488 | -15.25046 | 38086 ft | 506 kts | 95° |
| 2026-04-25 20:31 | 56.00256 | -15.12532 | 38087 ft | 506 kts | 95° |
| 2026-04-25 20:31 | 56.00018 | -14.99962 | 38088 ft | 506 kts | 95° |
| 2026-04-25 20:32 | 55.99974 | -14.87452 | 38089 ft | 507 kts | 92° |
| 2026-04-25 20:32 | 56.00063 | -14.74826 | 38098 ft | 507 kts | 92° |
| 2026-04-25 20:33 | 56.00102 | -14.62228 | 38100 ft | 507 kts | 93° |
| 2026-04-25 20:33 | 56.00109 | -14.51756 | 38100 ft | 506 kts | 93° |
| 2026-04-25 20:34 | 56.00101 | -14.37028 | 38104 ft | 506 kts | 93° |
| 2026-04-25 20:34 | 56.00081 | -14.24525 | 38102 ft | 506 kts | 93° |
| 2026-04-25 20:35 | 56.00049 | -14.11952 | 38109 ft | 506 kts | 93° |
| 2026-04-25 20:35 | 56.00004 | -13.99374 | 38107 ft | 506 kts | 93° |
| 2026-04-25 20:36 | 56.00138 | -13.86800 | 38105 ft | 507 kts | 91° |
| 2026-04-25 20:36 | 56.00376 | -13.74187 | 38113 ft | 507 kts | 91° |
| 2026-04-25 20:37 | 56.00568 | -13.61598 | 38113 ft | 506 kts | 91° |
| 2026-04-25 20:37 | 56.00728 | -13.49011 | 38112 ft | 506 kts | 91° |
| 2026-04-25 20:38 | 56.00872 | -13.36410 | 38118 ft | 506 kts | 92° |
| 2026-04-25 20:38 | 56.01004 | -13.23894 | 38119 ft | 506 kts | 92° |
| 2026-04-25 20:39 | 56.01124 | -13.11296 | 38127 ft | 506 kts | 92° |
| 2026-04-25 20:39 | 56.01195 | -13.03046 | 38122 ft | 506 kts | 92° |
| 2026-04-25 20:40 | 56.01325 | -12.86145 | 38135 ft | 505 kts | 92° |
| 2026-04-25 20:40 | 56.01405 | -12.73615 | 38128 ft | 505 kts | 92° |
| 2026-04-25 20:41 | 56.01474 | -12.61019 | 38130 ft | 505 kts | 92° |
| 2026-04-25 20:41 | 56.01529 | -12.48529 | 38138 ft | 505 kts | 92° |
| 2026-04-25 20:42 | 56.01572 | -12.35977 | 38134 ft | 505 kts | 92° |
| 2026-04-25 20:42 | 56.01602 | -12.23397 | 38136 ft | 505 kts | 92° |
| 2026-04-25 20:43 | 56.01620 | -12.10824 | 38135 ft | 505 kts | 92° |
| 2026-04-25 20:43 | 56.01624 | -11.98321 | 38140 ft | 505 kts | 93° |
| 2026-04-25 20:44 | 56.01616 | -11.85828 | 38143 ft | 505 kts | 93° |
| 2026-04-25 20:44 | 56.01595 | -11.73250 | 38140 ft | 505 kts | 93° |
| 2026-04-25 20:45 | 56.01562 | -11.60708 | 38148 ft | 505 kts | 93° |
| 2026-04-25 20:45 | 56.01515 | -11.48145 | 38148 ft | 504 kts | 93° |
| 2026-04-25 20:46 | 56.01456 | -11.35593 | 38154 ft | 504 kts | 93° |
| 2026-04-25 20:46 | 56.01398 | -11.25180 | 38149 ft | 504 kts | 93° |
| 2026-04-25 20:47 | 56.01315 | -11.12638 | 38150 ft | 504 kts | 93° |
| 2026-04-25 20:47 | 56.01220 | -11.00078 | 38148 ft | 504 kts | 93° |
| 2026-04-25 20:48 | 56.01112 | -10.87542 | 38149 ft | 504 kts | 94° |
| 2026-04-25 20:48 | 56.00992 | -10.75103 | 38151 ft | 504 kts | 94° |
| 2026-04-25 20:49 | 56.00858 | -10.62541 | 38157 ft | 504 kts | 94° |
| 2026-04-25 20:49 | 56.00713 | -10.50037 | 38154 ft | 504 kts | 94° |
| 2026-04-25 20:50 | 56.00555 | -10.37516 | 38161 ft | 504 kts | 94° |
| 2026-04-25 20:50 | 56.00384 | -10.25040 | 38160 ft | 503 kts | 94° |
| 2026-04-25 20:51 | 56.00201 | -10.12536 | 38160 ft | 503 kts | 94° |
| 2026-04-25 20:51 | 56.00012 | -10.00027 | 38160 ft | 503 kts | 94° |
| 2026-04-25 20:52 | 55.99931 | -9.89629 | 38180 ft | 503 kts | 92° |
| 2026-04-25 20:52 | 55.99931 | -9.81305 | 38490 ft | 498 kts | 92° |
| 2026-04-25 20:52 | 55.99931 | -9.75125 | 38711 ft | 495 kts | 92° |
| 2026-04-25 20:53 | 55.99923 | -9.69047 | 38852 ft | 495 kts | 92° |
| 2026-04-25 20:53 | 55.99907 | -9.62795 | 38945 ft | 494 kts | 92° |
| 2026-04-25 20:53 | 55.99855 | -9.50587 | 39110 ft | 494 kts | 92° |
| 2026-04-25 20:54 | 55.99784 | -9.37959 | 39169 ft | 496 kts | 92° |
| 2026-04-25 20:54 | 55.99700 | -9.25201 | 39187 ft | 498 kts | 92° |
| 2026-04-25 20:55 | 55.99604 | -9.12619 | 39188 ft | 499 kts | 93° |
| 2026-04-25 20:55 | 55.99496 | -9.00029 | 39191 ft | 500 kts | 93° |
| 2026-04-25 20:56 | 55.99377 | -8.87600 | 39190 ft | 500 kts | 93° |
| 2026-04-25 20:56 | 55.99245 | -8.75222 | 39172 ft | 501 kts | 93° |
| 2026-04-25 20:57 | 55.99100 | -8.62750 | 39172 ft | 501 kts | 93° |
| 2026-04-25 20:57 | 55.98943 | -8.50310 | 39171 ft | 501 kts | 93° |
| 2026-04-25 20:58 | 55.98773 | -8.37883 | 39170 ft | 500 kts | 93° |
| 2026-04-25 20:58 | 55.98618 | -8.27203 | 39173 ft | 500 kts | 94° |
| 2026-04-25 20:59 | 55.98423 | -8.14682 | 39170 ft | 500 kts | 94° |
| 2026-04-25 20:59 | 55.98212 | -8.01931 | 39174 ft | 500 kts | 94° |
| 2026-04-25 21:00 | 55.98031 | -7.91598 | 39175 ft | 500 kts | 94° |
| 2026-04-25 21:01 | 55.97643 | -7.70886 | 39170 ft | 500 kts | 94° |
| 2026-04-25 21:01 | 55.97393 | -7.58457 | 39171 ft | 500 kts | 94° |
| 2026-04-25 21:02 | 55.97131 | -7.46031 | 39171 ft | 500 kts | 94° |
| 2026-04-25 21:02 | 55.96856 | -7.33573 | 39180 ft | 500 kts | 94° |
| 2026-04-25 21:03 | 55.96568 | -7.21112 | 39201 ft | 499 kts | 94° |
| 2026-04-25 21:03 | 55.96270 | -7.08777 | 39205 ft | 499 kts | 94° |
| 2026-04-25 21:04 | 55.95950 | -6.96051 | 39203 ft | 499 kts | 94° |
| 2026-04-25 21:04 | 55.95626 | -6.83684 | 39202 ft | 498 kts | 94° |
| 2026-04-25 21:05 | 55.95292 | -6.71380 | 39203 ft | 498 kts | 94° |
| 2026-04-25 21:05 | 55.94929 | -6.58527 | 39201 ft | 498 kts | 95° |
| 2026-04-25 21:06 | 55.94569 | -6.46186 | 39203 ft | 497 kts | 95° |
| 2026-04-25 21:06 | 55.94196 | -6.33863 | 39200 ft | 497 kts | 95° |
| 2026-04-25 21:07 | 55.93814 | -6.21601 | 39199 ft | 497 kts | 95° |
| 2026-04-25 21:07 | 55.93415 | -6.09224 | 39202 ft | 496 kts | 95° |
| 2026-04-25 21:08 | 55.93006 | -5.96932 | 39202 ft | 496 kts | 95° |
| 2026-04-25 21:08 | 55.92656 | -5.86660 | 39205 ft | 496 kts | 95° |
| 2026-04-25 21:09 | 55.92004 | -5.68222 | 39208 ft | 496 kts | 95° |
| 2026-04-25 21:09 | 55.91557 | -5.55999 | 39215 ft | 496 kts | 95° |
| 2026-04-25 21:10 | 55.91088 | -5.43507 | 39214 ft | 496 kts | 96° |
| 2026-04-25 21:10 | 55.90849 | -5.31354 | 39220 ft | 498 kts | 86° |
| 2026-04-25 21:11 | 55.91460 | -5.25325 | 39223 ft | 499 kts | 75° |
| 2026-04-25 21:11 | 55.92707 | -5.19488 | 39229 ft | 500 kts | 65° |
| 2026-04-25 21:11 | 55.95781 | -5.08349 | 39234 ft | 501 kts | 64° |
| 2026-04-25 21:12 | 55.98894 | -4.97100 | 39245 ft | 501 kts | 64° |
| 2026-04-25 21:12 | 56.01435 | -4.87775 | 39251 ft | 501 kts | 64° |
| 2026-04-25 21:13 | 56.04984 | -4.74643 | 39260 ft | 501 kts | 65° |
| 2026-04-25 21:13 | 56.07986 | -4.63454 | 39264 ft | 501 kts | 65° |
| 2026-04-25 21:14 | 56.10994 | -4.52163 | 39267 ft | 501 kts | 65° |
| 2026-04-25 21:14 | 56.13981 | -4.40894 | 39267 ft | 501 kts | 65° |
| 2026-04-25 21:15 | 56.16965 | -4.29578 | 39266 ft | 500 kts | 65° |
| 2026-04-25 21:15 | 56.19917 | -4.18331 | 39268 ft | 500 kts | 65° |
| 2026-04-25 21:16 | 56.22874 | -4.07002 | 39273 ft | 500 kts | 65° |
| 2026-04-25 21:16 | 56.25817 | -3.95672 | 39271 ft | 500 kts | 65° |
| 2026-04-25 21:17 | 56.28702 | -3.84510 | 39276 ft | 499 kts | 65° |
| 2026-04-25 21:17 | 56.31649 | -3.73047 | 39278 ft | 499 kts | 65° |
| 2026-04-25 21:18 | 56.34494 | -3.61927 | 39280 ft | 498 kts | 65° |
| 2026-04-25 21:18 | 56.37411 | -3.50467 | 39280 ft | 498 kts | 66° |
| 2026-04-25 21:19 | 56.40268 | -3.39186 | 39297 ft | 497 kts | 66° |
| 2026-04-25 21:19 | 56.43131 | -3.27821 | 39306 ft | 496 kts | 66° |
| 2026-04-25 21:20 | 56.45507 | -3.18348 | 39311 ft | 496 kts | 66° |
| 2026-04-25 21:20 | 56.48817 | -3.05080 | 39312 ft | 495 kts | 66° |
| 2026-04-25 21:21 | 56.51627 | -2.93757 | 39315 ft | 494 kts | 66° |
| 2026-04-25 21:21 | 56.54415 | -2.82463 | 39309 ft | 494 kts | 66° |
| 2026-04-25 21:22 | 56.57214 | -2.71064 | 39308 ft | 493 kts | 66° |
| 2026-04-25 21:22 | 56.59978 | -2.59753 | 39305 ft | 492 kts | 66° |
| 2026-04-25 21:23 | 56.62743 | -2.48377 | 39306 ft | 492 kts | 66° |
| 2026-04-25 21:23 | 56.65494 | -2.36998 | 39305 ft | 491 kts | 67° |
| 2026-04-25 21:24 | 56.68230 | -2.25626 | 39313 ft | 490 kts | 67° |
| 2026-04-25 21:24 | 56.70915 | -2.14408 | 39312 ft | 490 kts | 67° |
| 2026-04-25 21:25 | 56.73607 | -2.03096 | 39319 ft | 489 kts | 67° |
| 2026-04-25 21:25 | 56.76305 | -1.91703 | 39322 ft | 489 kts | 67° |
| 2026-04-25 21:26 | 56.78990 | -1.80304 | 39321 ft | 488 kts | 67° |
| 2026-04-25 21:26 | 56.81663 | -1.68895 | 39323 ft | 488 kts | 68° |
| 2026-04-25 21:27 | 56.84297 | -1.57591 | 39321 ft | 488 kts | 68° |
| 2026-04-25 21:27 | 56.86945 | -1.46164 | 39320 ft | 488 kts | 68° |
| 2026-04-25 21:28 | 56.89537 | -1.34919 | 39321 ft | 488 kts | 68° |
| 2026-04-25 21:28 | 56.92149 | -1.23528 | 39322 ft | 488 kts | 68° |
| 2026-04-25 21:29 | 56.94758 | -1.12090 | 39324 ft | 488 kts | 68° |
| 2026-04-25 21:29 | 56.97376 | -1.00552 | 39326 ft | 488 kts | 68° |
| 2026-04-25 21:30 | 56.99970 | -0.89056 | 39325 ft | 488 kts | 68° |
| 2026-04-25 21:30 | 57.02119 | -0.79483 | 39326 ft | 488 kts | 68° |
| 2026-04-25 21:31 | 57.05127 | -0.66008 | 39327 ft | 488 kts | 68° |
| 2026-04-25 21:31 | 57.07678 | -0.54512 | 39327 ft | 488 kts | 68° |
| 2026-04-25 21:32 | 57.10236 | -0.42920 | 39327 ft | 488 kts | 68° |
| 2026-04-25 21:32 | 57.12776 | -0.31348 | 39329 ft | 488 kts | 68° |
| 2026-04-25 21:33 | 57.15310 | -0.19736 | 39321 ft | 489 kts | 68° |
| 2026-04-25 21:33 | 57.17825 | -0.08149 | 39324 ft | 488 kts | 68° |
| 2026-04-25 21:34 | 57.20340 | 0.03503 | 39326 ft | 489 kts | 68° |
| 2026-04-25 21:34 | 57.22846 | 0.15181 | 39328 ft | 489 kts | 68° |
| 2026-04-25 21:35 | 57.25334 | 0.26842 | 39325 ft | 489 kts | 68° |
| 2026-04-25 21:35 | 57.27816 | 0.38541 | 39325 ft | 488 kts | 69° |
| 2026-04-25 21:36 | 57.30273 | 0.50187 | 39325 ft | 488 kts | 69° |
| 2026-04-25 21:36 | 57.32733 | 0.61914 | 39325 ft | 488 kts | 69° |
| 2026-04-25 21:37 | 57.34357 | 0.69688 | 39325 ft | 488 kts | 69° |
| 2026-04-25 21:37 | 57.37569 | 0.85165 | 39323 ft | 488 kts | 69° |
| 2026-04-25 21:38 | 57.39991 | 0.96915 | 39323 ft | 487 kts | 69° |
| 2026-04-25 21:38 | 57.42409 | 1.08716 | 39322 ft | 487 kts | 68° |
| 2026-04-25 21:39 | 57.44801 | 1.20455 | 39322 ft | 487 kts | 68° |
| 2026-04-25 21:39 | 57.47193 | 1.32265 | 39322 ft | 487 kts | 68° |
| 2026-04-25 21:40 | 57.49555 | 1.43995 | 39318 ft | 487 kts | 68° |
| 2026-04-25 21:40 | 57.51925 | 1.55830 | 39316 ft | 487 kts | 68° |
| 2026-04-25 21:41 | 57.54266 | 1.67595 | 39316 ft | 487 kts | 68° |
| 2026-04-25 21:41 | 57.56598 | 1.79389 | 39314 ft | 483 kts | 68° |
| 2026-04-25 21:42 | 57.58919 | 1.91192 | 39318 ft | 484 kts | 68° |
| 2026-04-25 21:42 | 57.61203 | 2.02879 | 39310 ft | 484 kts | 68° |
| 2026-04-25 21:43 | 57.63511 | 2.14755 | 39303 ft | 484 kts | 68° |
| 2026-04-25 21:43 | 57.65782 | 2.26517 | 39293 ft | 484 kts | 68° |
| 2026-04-25 21:44 | 57.68036 | 2.38261 | 39293 ft | 485 kts | 68° |
| 2026-04-25 21:45 | 57.71058 | 2.54125 | 39288 ft | 486 kts | 68° |
| 2026-04-25 21:45 | 57.73315 | 2.66053 | 39291 ft | 486 kts | 68° |
| 2026-04-25 21:46 | 57.75548 | 2.77934 | 39291 ft | 486 kts | 68° |
| 2026-04-25 21:46 | 57.77757 | 2.89754 | 39299 ft | 486 kts | 68° |
| 2026-04-25 21:47 | 57.79983 | 3.01741 | 39299 ft | 486 kts | 68° |
| 2026-04-25 21:47 | 57.82195 | 3.13734 | 39301 ft | 486 kts | 68° |
| 2026-04-25 21:48 | 57.84384 | 3.25659 | 39299 ft | 486 kts | 68° |
| 2026-04-25 21:48 | 57.86583 | 3.37676 | 39297 ft | 486 kts | 68° |
| 2026-04-25 21:49 | 57.88769 | 3.49681 | 39293 ft | 486 kts | 68° |
| 2026-04-25 21:49 | 57.90851 | 3.61814 | 39297 ft | 487 kts | 70° |
| 2026-04-25 21:50 | 57.92445 | 3.74076 | 39281 ft | 488 kts | 73° |
| 2026-04-25 21:50 | 57.94068 | 3.86407 | 39282 ft | 488 kts | 72° |
| 2026-04-25 21:51 | 57.95698 | 3.98810 | 39277 ft | 488 kts | 72° |
| 2026-04-25 21:51 | 57.97306 | 4.11297 | 39278 ft | 488 kts | 72° |
| 2026-04-25 21:52 | 57.98883 | 4.23693 | 39273 ft | 489 kts | 72° |
| 2026-04-25 21:52 | 58.00455 | 4.36166 | 39273 ft | 489 kts | 72° |
| 2026-04-25 21:53 | 58.02016 | 4.48654 | 39266 ft | 489 kts | 72° |
| 2026-04-25 21:53 | 58.03556 | 4.61081 | 39262 ft | 489 kts | 72° |
| 2026-04-25 21:54 | 58.05095 | 4.73608 | 39254 ft | 487 kts | 72° |
| 2026-04-25 21:54 | 58.06614 | 4.86086 | 39250 ft | 487 kts | 72° |
| 2026-04-25 21:55 | 58.08112 | 4.98495 | 39249 ft | 487 kts | 72° |
| 2026-04-25 21:55 | 58.09610 | 5.11019 | 39248 ft | 488 kts | 72° |
| 2026-04-25 21:56 | 58.11097 | 5.23564 | 39236 ft | 488 kts | 72° |
| 2026-04-25 21:56 | 58.12561 | 5.36026 | 39224 ft | 488 kts | 72° |
| 2026-04-25 21:57 | 58.14027 | 5.48623 | 39223 ft | 489 kts | 72° |
| 2026-04-25 21:57 | 58.15471 | 5.61148 | 39224 ft | 489 kts | 72° |
| 2026-04-25 21:58 | 58.16913 | 5.73769 | 39217 ft | 489 kts | 72° |
| 2026-04-25 21:58 | 58.18340 | 5.86384 | 39217 ft | 489 kts | 72° |
| 2026-04-25 21:59 | 58.19745 | 5.98919 | 39212 ft | 489 kts | 72° |
| 2026-04-25 21:59 | 58.21123 | 6.11327 | 39205 ft | 490 kts | 72° |
| 2026-04-25 22:00 | 58.23174 | 6.30022 | 39193 ft | 490 kts | 72° |
| 2026-04-25 22:00 | 58.24550 | 6.42717 | 39188 ft | 490 kts | 72° |
| 2026-04-25 22:01 | 58.25908 | 6.55371 | 39183 ft | 490 kts | 71° |
| 2026-04-25 22:01 | 58.27032 | 6.65941 | 39187 ft | 490 kts | 71° |
| 2026-04-25 22:02 | 58.28591 | 6.80745 | 39186 ft | 491 kts | 71° |
| 2026-04-25 22:02 | 58.29918 | 6.93495 | 39185 ft | 491 kts | 71° |
| 2026-04-25 22:03 | 58.31237 | 7.06275 | 39186 ft | 491 kts | 71° |
| 2026-04-25 22:03 | 58.32531 | 7.18978 | 39183 ft | 492 kts | 71° |
| 2026-04-25 22:04 | 58.33808 | 7.31639 | 39179 ft | 492 kts | 71° |
| 2026-04-25 22:04 | 58.35089 | 7.44470 | 39182 ft | 493 kts | 71° |
| 2026-04-25 22:05 | 58.36367 | 7.57395 | 39169 ft | 493 kts | 71° |
| 2026-04-25 22:05 | 58.37614 | 7.70181 | 39154 ft | 493 kts | 71° |
| 2026-04-25 22:06 | 58.38866 | 7.83155 | 39151 ft | 494 kts | 72° |
| 2026-04-25 22:06 | 58.40088 | 7.95955 | 39142 ft | 494 kts | 72° |
| 2026-04-25 22:07 | 58.41107 | 8.06675 | 39143 ft | 493 kts | 71° |
| 2026-04-25 22:07 | 58.42421 | 8.14941 | 39143 ft | 478 kts | 58° |
| 2026-04-25 22:07 | 58.43716 | 8.19779 | 39147 ft | 468 kts | 50° |
| 2026-04-25 22:08 | 58.47701 | 8.29270 | 39151 ft | 452 kts | 37° |
| 2026-04-25 22:08 | 58.52059 | 8.37887 | 39166 ft | 454 kts | 37° |
| 2026-04-25 22:09 | 58.56338 | 8.46449 | 39035 ft | 455 kts | 38° |
| 2026-04-25 22:09 | 58.58514 | 8.50830 | 38666 ft | 453 kts | 37° |
| 2026-04-25 22:09 | 58.60681 | 8.55203 | 38119 ft | 452 kts | 37° |
| 2026-04-25 22:10 | 58.62837 | 8.59563 | 37613 ft | 444 kts | 37° |
| 2026-04-25 22:10 | 58.64944 | 8.63833 | 37105 ft | 437 kts | 37° |
| 2026-04-25 22:10 | 58.67026 | 8.68056 | 36607 ft | 432 kts | 37° |
| 2026-04-25 22:10 | 58.69057 | 8.72176 | 36141 ft | 428 kts | 37° |
| 2026-04-25 22:11 | 58.71098 | 8.76323 | 35668 ft | 425 kts | 36° |
| 2026-04-25 22:11 | 58.73132 | 8.80462 | 35200 ft | 422 kts | 36° |
| 2026-04-25 22:11 | 58.75146 | 8.84566 | 34740 ft | 419 kts | 36° |
| 2026-04-25 22:11 | 58.77132 | 8.88628 | 34292 ft | 414 kts | 36° |
| 2026-04-25 22:12 | 58.79072 | 8.92609 | 33811 ft | 409 kts | 36° |
| 2026-04-25 22:12 | 58.81012 | 8.96591 | 33299 ft | 405 kts | 36° |
| 2026-04-25 22:12 | 58.82934 | 9.00543 | 32802 ft | 401 kts | 36° |
| 2026-04-25 22:12 | 58.84190 | 9.03103 | 32476 ft | 396 kts | 34° |
| 2026-04-25 22:13 | 58.86921 | 9.07640 | 31836 ft | 380 kts | 27° |
| 2026-04-25 22:13 | 58.89015 | 9.10806 | 31360 ft | 379 kts | 27° |
| 2026-04-25 22:13 | 58.91061 | 9.13930 | 30891 ft | 376 kts | 27° |
| 2026-04-25 22:13 | 58.93090 | 9.17050 | 30433 ft | 372 kts | 27° |
| 2026-04-25 22:14 | 58.95117 | 9.20179 | 29929 ft | 368 kts | 27° |
| 2026-04-25 22:14 | 58.97107 | 9.23253 | 29410 ft | 364 kts | 27° |
| 2026-04-25 22:14 | 58.99080 | 9.26306 | 28887 ft | 360 kts | 27° |
| 2026-04-25 22:14 | 59.01029 | 9.29323 | 28371 ft | 357 kts | 27° |
| 2026-04-25 22:15 | 59.01249 | 9.29663 | 28308 ft | 357 kts | 27° |
| 2026-04-25 22:16 | 59.05315 | 9.35965 | 27263 ft | 350 kts | 27° |
| 2026-04-25 22:16 | 59.07196 | 9.38888 | 26777 ft | 349 kts | 27° |
| 2026-04-25 22:16 | 59.09083 | 9.41824 | 26302 ft | 346 kts | 27° |
| 2026-04-25 22:16 | 59.10958 | 9.44752 | 25832 ft | 342 kts | 27° |
| 2026-04-25 22:17 | 59.12808 | 9.47640 | 25379 ft | 341 kts | 27° |
| 2026-04-25 22:17 | 59.14634 | 9.50491 | 24919 ft | 338 kts | 27° |
| 2026-04-25 22:17 | 59.16378 | 9.53226 | 24481 ft | 336 kts | 27° |
| 2026-04-25 22:17 | 59.18215 | 9.56103 | 24049 ft | 333 kts | 27° |
| 2026-04-25 22:18 | 59.20065 | 9.58694 | 23586 ft | 321 kts | 22° |
| 2026-04-25 22:18 | 59.21903 | 9.61024 | 23061 ft | 316 kts | 22° |
| 2026-04-25 22:18 | 59.23725 | 9.63345 | 22560 ft | 310 kts | 22° |
| 2026-04-25 22:18 | 59.25522 | 9.65643 | 22030 ft | 306 kts | 22° |
| 2026-04-25 22:19 | 59.27294 | 9.67921 | 21540 ft | 301 kts | 22° |
| 2026-04-25 22:19 | 59.29031 | 9.70155 | 21054 ft | 297 kts | 22° |
| 2026-04-25 22:19 | 59.30723 | 9.72337 | 20565 ft | 292 kts | 22° |
| 2026-04-25 22:19 | 59.32409 | 9.74513 | 20110 ft | 291 kts | 22° |
| 2026-04-25 22:20 | 59.34082 | 9.76492 | 19642 ft | 282 kts | 14° |
| 2026-04-25 22:20 | 59.35928 | 9.77201 | 19184 ft | 265 kts | 353° |
| 2026-04-25 22:20 | 59.37677 | 9.76245 | 18750 ft | 261 kts | 333° |
| 2026-04-25 22:20 | 59.39352 | 9.74944 | 18271 ft | 260 kts | 345° |
| 2026-04-25 22:21 | 59.41171 | 9.74931 | 17759 ft | 269 kts | 6° |
| 2026-04-25 22:21 | 59.42910 | 9.76519 | 17245 ft | 287 kts | 27° |
| 2026-04-25 22:21 | 59.44334 | 9.79311 | 16759 ft | 298 kts | 40° |
| 2026-04-25 22:21 | 59.45577 | 9.82580 | 16307 ft | 296 kts | 44° |
| 2026-04-25 22:22 | 59.46792 | 9.85877 | 15866 ft | 297 kts | 43° |
| 2026-04-25 22:22 | 59.48039 | 9.89091 | 15440 ft | 293 kts | 42° |
| 2026-04-25 22:22 | 59.49309 | 9.92208 | 15027 ft | 291 kts | 41° |
| 2026-04-25 22:22 | 59.50599 | 9.95261 | 14580 ft | 287 kts | 41° |
| 2026-04-25 22:23 | 59.51879 | 9.98257 | 14182 ft | 286 kts | 41° |
| 2026-04-25 22:23 | 59.53176 | 10.01266 | 13749 ft | 289 kts | 41° |
| 2026-04-25 22:23 | 59.54463 | 10.04266 | 13277 ft | 283 kts | 42° |
| 2026-04-25 22:23 | 59.55683 | 10.07123 | 12846 ft | 283 kts | 43° |
| 2026-04-25 22:24 | 59.56937 | 10.10058 | 12495 ft | 282 kts | 43° |
| 2026-04-25 22:24 | 59.58194 | 10.13018 | 12277 ft | 279 kts | 43° |
| 2026-04-25 22:24 | 59.59449 | 10.15973 | 12188 ft | 282 kts | 43° |
| 2026-04-25 22:24 | 59.60707 | 10.18938 | 12121 ft | 281 kts | 44° |
| 2026-04-25 22:25 | 59.62003 | 10.21817 | 12135 ft | 279 kts | 38° |
| 2026-04-25 22:25 | 59.63480 | 10.24278 | 12116 ft | 276 kts | 33° |
| 2026-04-25 22:25 | 59.64981 | 10.26661 | 12122 ft | 276 kts | 33° |
| 2026-04-25 22:25 | 59.66450 | 10.29019 | 12122 ft | 277 kts | 33° |
| 2026-04-25 22:26 | 59.67901 | 10.31375 | 12123 ft | 277 kts | 33° |
| 2026-04-25 22:26 | 59.69395 | 10.33811 | 12120 ft | 278 kts | 33° |
| 2026-04-25 22:26 | 59.70890 | 10.36256 | 12118 ft | 278 kts | 34° |
| 2026-04-25 22:26 | 59.72402 | 10.38620 | 12110 ft | 273 kts | 27° |
| 2026-04-25 22:27 | 59.74044 | 10.40041 | 12086 ft | 245 kts | 12° |